<?xml version="1.0" encoding="UTF-8" standalone="no" ?>
<gpx xmlns="http://www.topografix.com/GPX/1/1" xmlns:xsi="http://www.w3.org/2001/XMLSchema-instance" xsi:schemaLocation="http://www.topografix.com/GPX/1/1 http://www.topografix.com/GPX/1/1/gpx.xsd" version="1.1" creator="VisuGPX - https://www.visugpx.com">
  <metadata>
    <name>Pouilly-Sous-Charlieu-Saint-Germain-Lespinasse</name>
    <desc><![CDATA[Chemin de Compostelle 2016 : Pouilly-Sous-Charlieu-Saint-Germain-Lespinasse]]></desc>
  </metadata>
  <trk>
    <name><![CDATA[28 Pouilly-sous-Charlieu - Saint-Germain-Lespinasse]]></name>
    <trkseg>
      <trkpt lat="46.1429" lon="4.10841">
        <ele>261</ele>
        <time>2016-04-19T09:17:01Z</time>
      </trkpt>
      <trkpt lat="46.14331" lon="4.10835">
        <ele>264</ele>
        <time>2016-04-19T09:17:06Z</time>
      </trkpt>
      <trkpt lat="46.14372" lon="4.10836">
        <ele>277</ele>
        <time>2016-04-19T09:17:16Z</time>
      </trkpt>
      <trkpt lat="46.14377" lon="4.10835">
        <ele>277</ele>
        <time>2016-04-19T09:17:19Z</time>
      </trkpt>
      <trkpt lat="46.14404" lon="4.10825">
        <ele>270</ele>
        <time>2016-04-19T09:17:36Z</time>
      </trkpt>
      <trkpt lat="46.14419" lon="4.10833">
        <ele>269</ele>
        <time>2016-04-19T09:17:49Z</time>
      </trkpt>
      <trkpt lat="46.14439" lon="4.10829">
        <ele>266</ele>
        <time>2016-04-19T09:18:06Z</time>
      </trkpt>
      <trkpt lat="46.14444" lon="4.10831">
        <ele>266</ele>
        <time>2016-04-19T09:18:10Z</time>
      </trkpt>
      <trkpt lat="46.14454" lon="4.10832">
        <ele>266</ele>
        <time>2016-04-19T09:18:18Z</time>
      </trkpt>
      <trkpt lat="46.14459" lon="4.10828">
        <ele>266</ele>
        <time>2016-04-19T09:18:22Z</time>
      </trkpt>
      <trkpt lat="46.14462" lon="4.10824">
        <ele>266</ele>
        <time>2016-04-19T09:18:24Z</time>
      </trkpt>
      <trkpt lat="46.14465" lon="4.10821">
        <ele>266</ele>
        <time>2016-04-19T09:18:27Z</time>
      </trkpt>
      <trkpt lat="46.1447" lon="4.10823">
        <ele>266</ele>
        <time>2016-04-19T09:18:31Z</time>
      </trkpt>
      <trkpt lat="46.1448" lon="4.10828">
        <ele>266</ele>
        <time>2016-04-19T09:18:39Z</time>
      </trkpt>
      <trkpt lat="46.14509" lon="4.10837">
        <ele>270</ele>
        <time>2016-04-19T09:19:04Z</time>
      </trkpt>
      <trkpt lat="46.14512" lon="4.10844">
        <ele>270</ele>
        <time>2016-04-19T09:19:10Z</time>
      </trkpt>
      <trkpt lat="46.14511" lon="4.10841">
        <ele>270</ele>
        <time>2016-04-19T09:19:59Z</time>
      </trkpt>
      <trkpt lat="46.14532" lon="4.10832">
        <ele>256</ele>
        <time>2016-04-19T09:20:23Z</time>
      </trkpt>
      <trkpt lat="46.14538" lon="4.10831">
        <ele>255</ele>
        <time>2016-04-19T09:20:26Z</time>
      </trkpt>
      <trkpt lat="46.14549" lon="4.10832">
        <ele>256</ele>
        <time>2016-04-19T09:20:35Z</time>
      </trkpt>
      <trkpt lat="46.14554" lon="4.10833">
        <ele>256</ele>
        <time>2016-04-19T09:20:37Z</time>
      </trkpt>
      <trkpt lat="46.14559" lon="4.10838">
        <ele>257</ele>
        <time>2016-04-19T09:20:41Z</time>
      </trkpt>
      <trkpt lat="46.14575" lon="4.10843">
        <ele>259</ele>
        <time>2016-04-19T09:20:53Z</time>
      </trkpt>
      <trkpt lat="46.14595" lon="4.10841">
        <ele>267</ele>
        <time>2016-04-19T09:21:09Z</time>
      </trkpt>
      <trkpt lat="46.146" lon="4.10837">
        <ele>267</ele>
        <time>2016-04-19T09:21:14Z</time>
      </trkpt>
      <trkpt lat="46.14606" lon="4.10825">
        <ele>265</ele>
        <time>2016-04-19T09:21:21Z</time>
      </trkpt>
      <trkpt lat="46.14609" lon="4.1079">
        <ele>259</ele>
        <time>2016-04-19T09:21:46Z</time>
      </trkpt>
      <trkpt lat="46.14608" lon="4.10785">
        <ele>259</ele>
        <time>2016-04-19T09:21:54Z</time>
      </trkpt>
      <trkpt lat="46.14608" lon="4.10776">
        <ele>259</ele>
        <time>2016-04-19T09:22:14Z</time>
      </trkpt>
      <trkpt lat="46.14615" lon="4.10749">
        <ele>261</ele>
        <time>2016-04-19T09:22:30Z</time>
      </trkpt>
      <trkpt lat="46.14612" lon="4.1071">
        <ele>258</ele>
        <time>2016-04-19T09:23:21Z</time>
      </trkpt>
      <trkpt lat="46.14609" lon="4.10704">
        <ele>258</ele>
        <time>2016-04-19T09:23:25Z</time>
      </trkpt>
      <trkpt lat="46.14611" lon="4.10696">
        <ele>257</ele>
        <time>2016-04-19T09:23:30Z</time>
      </trkpt>
      <trkpt lat="46.14614" lon="4.10682">
        <ele>256</ele>
        <time>2016-04-19T09:23:37Z</time>
      </trkpt>
      <trkpt lat="46.14613" lon="4.10674">
        <ele>257</ele>
        <time>2016-04-19T09:23:41Z</time>
      </trkpt>
      <trkpt lat="46.14618" lon="4.10653">
        <ele>256</ele>
        <time>2016-04-19T09:23:52Z</time>
      </trkpt>
      <trkpt lat="46.14621" lon="4.10639">
        <ele>255</ele>
        <time>2016-04-19T09:24:00Z</time>
      </trkpt>
      <trkpt lat="46.14621" lon="4.10631">
        <ele>255</ele>
        <time>2016-04-19T09:24:04Z</time>
      </trkpt>
      <trkpt lat="46.14622" lon="4.10623">
        <ele>255</ele>
        <time>2016-04-19T09:24:08Z</time>
      </trkpt>
      <trkpt lat="46.14624" lon="4.10607">
        <ele>254</ele>
        <time>2016-04-19T09:24:16Z</time>
      </trkpt>
      <trkpt lat="46.14625" lon="4.106">
        <ele>254</ele>
        <time>2016-04-19T09:24:20Z</time>
      </trkpt>
      <trkpt lat="46.14632" lon="4.10573">
        <ele>254</ele>
        <time>2016-04-19T09:24:38Z</time>
      </trkpt>
      <trkpt lat="46.14631" lon="4.10565">
        <ele>254</ele>
        <time>2016-04-19T09:24:43Z</time>
      </trkpt>
      <trkpt lat="46.14634" lon="4.10558">
        <ele>255</ele>
        <time>2016-04-19T09:24:47Z</time>
      </trkpt>
      <trkpt lat="46.14636" lon="4.10551">
        <ele>255</ele>
        <time>2016-04-19T09:24:51Z</time>
      </trkpt>
      <trkpt lat="46.14638" lon="4.10545">
        <ele>255</ele>
        <time>2016-04-19T09:24:55Z</time>
      </trkpt>
      <trkpt lat="46.14639" lon="4.10538">
        <ele>255</ele>
        <time>2016-04-19T09:24:59Z</time>
      </trkpt>
      <trkpt lat="46.14636" lon="4.10517">
        <ele>253</ele>
        <time>2016-04-19T09:25:11Z</time>
      </trkpt>
      <trkpt lat="46.14637" lon="4.1051">
        <ele>252</ele>
        <time>2016-04-19T09:25:15Z</time>
      </trkpt>
      <trkpt lat="46.1464" lon="4.10505">
        <ele>252</ele>
        <time>2016-04-19T09:25:19Z</time>
      </trkpt>
      <trkpt lat="46.14642" lon="4.10497">
        <ele>252</ele>
        <time>2016-04-19T09:25:24Z</time>
      </trkpt>
      <trkpt lat="46.14644" lon="4.10467">
        <ele>253</ele>
        <time>2016-04-19T09:25:40Z</time>
      </trkpt>
      <trkpt lat="46.14647" lon="4.10438">
        <ele>253</ele>
        <time>2016-04-19T09:25:56Z</time>
      </trkpt>
      <trkpt lat="46.14652" lon="4.10424">
        <ele>252</ele>
        <time>2016-04-19T09:26:04Z</time>
      </trkpt>
      <trkpt lat="46.14651" lon="4.10417">
        <ele>252</ele>
        <time>2016-04-19T09:26:08Z</time>
      </trkpt>
      <trkpt lat="46.1465" lon="4.10387">
        <ele>252</ele>
        <time>2016-04-19T09:26:24Z</time>
      </trkpt>
      <trkpt lat="46.14649" lon="4.10379">
        <ele>251</ele>
        <time>2016-04-19T09:26:28Z</time>
      </trkpt>
      <trkpt lat="46.14654" lon="4.10358">
        <ele>251</ele>
        <time>2016-04-19T09:26:41Z</time>
      </trkpt>
      <trkpt lat="46.14658" lon="4.10353">
        <ele>250</ele>
        <time>2016-04-19T09:26:44Z</time>
      </trkpt>
      <trkpt lat="46.1466" lon="4.10346">
        <ele>250</ele>
        <time>2016-04-19T09:26:48Z</time>
      </trkpt>
      <trkpt lat="46.14664" lon="4.1034">
        <ele>250</ele>
        <time>2016-04-19T09:26:52Z</time>
      </trkpt>
      <trkpt lat="46.14665" lon="4.10333">
        <ele>251</ele>
        <time>2016-04-19T09:26:56Z</time>
      </trkpt>
      <trkpt lat="46.1466" lon="4.10322">
        <ele>251</ele>
        <time>2016-04-19T09:27:02Z</time>
      </trkpt>
      <trkpt lat="46.14658" lon="4.10315">
        <ele>251</ele>
        <time>2016-04-19T09:27:06Z</time>
      </trkpt>
      <trkpt lat="46.14657" lon="4.10308">
        <ele>251</ele>
        <time>2016-04-19T09:27:10Z</time>
      </trkpt>
      <trkpt lat="46.14657" lon="4.103">
        <ele>251</ele>
        <time>2016-04-19T09:27:14Z</time>
      </trkpt>
      <trkpt lat="46.14659" lon="4.10293">
        <ele>251</ele>
        <time>2016-04-19T09:27:18Z</time>
      </trkpt>
      <trkpt lat="46.14661" lon="4.10278">
        <ele>250</ele>
        <time>2016-04-19T09:27:26Z</time>
      </trkpt>
      <trkpt lat="46.14661" lon="4.10272">
        <ele>250</ele>
        <time>2016-04-19T09:27:30Z</time>
      </trkpt>
      <trkpt lat="46.14661" lon="4.10265">
        <ele>249</ele>
        <time>2016-04-19T09:27:34Z</time>
      </trkpt>
      <trkpt lat="46.14663" lon="4.10258">
        <ele>249</ele>
        <time>2016-04-19T09:27:39Z</time>
      </trkpt>
      <trkpt lat="46.14672" lon="4.10251">
        <ele>248</ele>
        <time>2016-04-19T09:27:47Z</time>
      </trkpt>
      <trkpt lat="46.14673" lon="4.10243">
        <ele>247</ele>
        <time>2016-04-19T09:27:51Z</time>
      </trkpt>
      <trkpt lat="46.14673" lon="4.10228">
        <ele>247</ele>
        <time>2016-04-19T09:27:59Z</time>
      </trkpt>
      <trkpt lat="46.14674" lon="4.10221">
        <ele>248</ele>
        <time>2016-04-19T09:28:03Z</time>
      </trkpt>
      <trkpt lat="46.14675" lon="4.10214">
        <ele>249</ele>
        <time>2016-04-19T09:28:07Z</time>
      </trkpt>
      <trkpt lat="46.14677" lon="4.10177">
        <ele>250</ele>
        <time>2016-04-19T09:28:27Z</time>
      </trkpt>
      <trkpt lat="46.14678" lon="4.1017">
        <ele>250</ele>
        <time>2016-04-19T09:28:31Z</time>
      </trkpt>
      <trkpt lat="46.14679" lon="4.10155">
        <ele>251</ele>
        <time>2016-04-19T09:28:39Z</time>
      </trkpt>
      <trkpt lat="46.14677" lon="4.10148">
        <ele>251</ele>
        <time>2016-04-19T09:28:43Z</time>
      </trkpt>
      <trkpt lat="46.14678" lon="4.1014">
        <ele>251</ele>
        <time>2016-04-19T09:28:47Z</time>
      </trkpt>
      <trkpt lat="46.14683" lon="4.10106">
        <ele>252</ele>
        <time>2016-04-19T09:29:08Z</time>
      </trkpt>
      <trkpt lat="46.1468" lon="4.10099">
        <ele>252</ele>
        <time>2016-04-19T09:29:12Z</time>
      </trkpt>
      <trkpt lat="46.14679" lon="4.10086">
        <ele>251</ele>
        <time>2016-04-19T09:29:20Z</time>
      </trkpt>
      <trkpt lat="46.14679" lon="4.10072">
        <ele>252</ele>
        <time>2016-04-19T09:29:30Z</time>
      </trkpt>
      <trkpt lat="46.14682" lon="4.10067">
        <ele>252</ele>
        <time>2016-04-19T09:29:34Z</time>
      </trkpt>
      <trkpt lat="46.14684" lon="4.10028">
        <ele>253</ele>
        <time>2016-04-19T09:29:54Z</time>
      </trkpt>
      <trkpt lat="46.14686" lon="4.1002">
        <ele>252</ele>
        <time>2016-04-19T09:29:59Z</time>
      </trkpt>
      <trkpt lat="46.14691" lon="4.09971">
        <ele>257</ele>
        <time>2016-04-19T09:30:29Z</time>
      </trkpt>
      <trkpt lat="46.14695" lon="4.09943">
        <ele>257</ele>
        <time>2016-04-19T09:30:47Z</time>
      </trkpt>
      <trkpt lat="46.147" lon="4.09899">
        <ele>259</ele>
        <time>2016-04-19T09:31:12Z</time>
      </trkpt>
      <trkpt lat="46.14701" lon="4.09892">
        <ele>260</ele>
        <time>2016-04-19T09:31:17Z</time>
      </trkpt>
      <trkpt lat="46.14701" lon="4.09885">
        <ele>260</ele>
        <time>2016-04-19T09:31:21Z</time>
      </trkpt>
      <trkpt lat="46.14703" lon="4.09878">
        <ele>260</ele>
        <time>2016-04-19T09:31:25Z</time>
      </trkpt>
      <trkpt lat="46.14705" lon="4.09864">
        <ele>261</ele>
        <time>2016-04-19T09:31:34Z</time>
      </trkpt>
      <trkpt lat="46.14708" lon="4.09841">
        <ele>261</ele>
        <time>2016-04-19T09:31:49Z</time>
      </trkpt>
      <trkpt lat="46.14708" lon="4.09835">
        <ele>261</ele>
        <time>2016-04-19T09:31:53Z</time>
      </trkpt>
      <trkpt lat="46.14709" lon="4.09828">
        <ele>261</ele>
        <time>2016-04-19T09:31:57Z</time>
      </trkpt>
      <trkpt lat="46.1471" lon="4.09822">
        <ele>261</ele>
        <time>2016-04-19T09:32:01Z</time>
      </trkpt>
      <trkpt lat="46.14711" lon="4.09815">
        <ele>261</ele>
        <time>2016-04-19T09:32:05Z</time>
      </trkpt>
      <trkpt lat="46.14716" lon="4.09759">
        <ele>263</ele>
        <time>2016-04-19T09:32:38Z</time>
      </trkpt>
      <trkpt lat="46.14716" lon="4.09751">
        <ele>263</ele>
        <time>2016-04-19T09:32:43Z</time>
      </trkpt>
      <trkpt lat="46.14718" lon="4.0973">
        <ele>264</ele>
        <time>2016-04-19T09:32:56Z</time>
      </trkpt>
      <trkpt lat="46.14724" lon="4.09681">
        <ele>262</ele>
        <time>2016-04-19T09:33:26Z</time>
      </trkpt>
      <trkpt lat="46.14727" lon="4.09661">
        <ele>260</ele>
        <time>2016-04-19T09:33:38Z</time>
      </trkpt>
      <trkpt lat="46.14729" lon="4.09646">
        <ele>260</ele>
        <time>2016-04-19T09:33:47Z</time>
      </trkpt>
      <trkpt lat="46.1473" lon="4.09632">
        <ele>261</ele>
        <time>2016-04-19T09:33:55Z</time>
      </trkpt>
      <trkpt lat="46.14735" lon="4.09581">
        <ele>258</ele>
        <time>2016-04-19T09:34:25Z</time>
      </trkpt>
      <trkpt lat="46.14741" lon="4.09522">
        <ele>257</ele>
        <time>2016-04-19T09:34:59Z</time>
      </trkpt>
      <trkpt lat="46.14747" lon="4.09464">
        <ele>257</ele>
        <time>2016-04-19T09:35:31Z</time>
      </trkpt>
      <trkpt lat="46.14752" lon="4.09406">
        <ele>256</ele>
        <time>2016-04-19T09:36:04Z</time>
      </trkpt>
      <trkpt lat="46.14755" lon="4.09364">
        <ele>257</ele>
        <time>2016-04-19T09:36:30Z</time>
      </trkpt>
      <trkpt lat="46.14755" lon="4.09349">
        <ele>259</ele>
        <time>2016-04-19T09:36:40Z</time>
      </trkpt>
      <trkpt lat="46.14761" lon="4.09297">
        <ele>259</ele>
        <time>2016-04-19T09:37:12Z</time>
      </trkpt>
      <trkpt lat="46.14762" lon="4.0929">
        <ele>259</ele>
        <time>2016-04-19T09:37:16Z</time>
      </trkpt>
      <trkpt lat="46.14762" lon="4.09283">
        <ele>259</ele>
        <time>2016-04-19T09:37:20Z</time>
      </trkpt>
      <trkpt lat="46.14763" lon="4.09276">
        <ele>259</ele>
        <time>2016-04-19T09:37:25Z</time>
      </trkpt>
      <trkpt lat="46.14768" lon="4.09224">
        <ele>259</ele>
        <time>2016-04-19T09:37:55Z</time>
      </trkpt>
      <trkpt lat="46.14772" lon="4.09188">
        <ele>259</ele>
        <time>2016-04-19T09:38:15Z</time>
      </trkpt>
      <trkpt lat="46.14776" lon="4.09136">
        <ele>261</ele>
        <time>2016-04-19T09:38:47Z</time>
      </trkpt>
      <trkpt lat="46.14778" lon="4.09122">
        <ele>260</ele>
        <time>2016-04-19T09:38:57Z</time>
      </trkpt>
      <trkpt lat="46.14781" lon="4.09094">
        <ele>260</ele>
        <time>2016-04-19T09:39:15Z</time>
      </trkpt>
      <trkpt lat="46.14783" lon="4.09079">
        <ele>260</ele>
        <time>2016-04-19T09:39:24Z</time>
      </trkpt>
      <trkpt lat="46.14786" lon="4.09028">
        <ele>259</ele>
        <time>2016-04-19T09:39:56Z</time>
      </trkpt>
      <trkpt lat="46.14789" lon="4.09005">
        <ele>259</ele>
        <time>2016-04-19T09:40:11Z</time>
      </trkpt>
      <trkpt lat="46.14791" lon="4.08998">
        <ele>259</ele>
        <time>2016-04-19T09:40:15Z</time>
      </trkpt>
      <trkpt lat="46.14791" lon="4.0899">
        <ele>260</ele>
        <time>2016-04-19T09:40:19Z</time>
      </trkpt>
      <trkpt lat="46.14793" lon="4.08976">
        <ele>261</ele>
        <time>2016-04-19T09:40:28Z</time>
      </trkpt>
      <trkpt lat="46.14795" lon="4.08948">
        <ele>264</ele>
        <time>2016-04-19T09:41:06Z</time>
      </trkpt>
      <trkpt lat="46.14796" lon="4.08932">
        <ele>265</ele>
        <time>2016-04-19T09:41:16Z</time>
      </trkpt>
      <trkpt lat="46.14797" lon="4.08925">
        <ele>266</ele>
        <time>2016-04-19T09:41:21Z</time>
      </trkpt>
      <trkpt lat="46.14798" lon="4.08918">
        <ele>266</ele>
        <time>2016-04-19T09:41:25Z</time>
      </trkpt>
      <trkpt lat="46.148" lon="4.08902">
        <ele>266</ele>
        <time>2016-04-19T09:41:34Z</time>
      </trkpt>
      <trkpt lat="46.148" lon="4.08895">
        <ele>266</ele>
        <time>2016-04-19T09:41:38Z</time>
      </trkpt>
      <trkpt lat="46.14807" lon="4.0886">
        <ele>266</ele>
        <time>2016-04-19T09:41:57Z</time>
      </trkpt>
      <trkpt lat="46.14808" lon="4.08846">
        <ele>266</ele>
        <time>2016-04-19T09:42:05Z</time>
      </trkpt>
      <trkpt lat="46.1481" lon="4.08839">
        <ele>266</ele>
        <time>2016-04-19T09:42:10Z</time>
      </trkpt>
      <trkpt lat="46.14812" lon="4.08833">
        <ele>266</ele>
        <time>2016-04-19T09:42:14Z</time>
      </trkpt>
      <trkpt lat="46.14814" lon="4.08825">
        <ele>266</ele>
        <time>2016-04-19T09:42:18Z</time>
      </trkpt>
      <trkpt lat="46.14816" lon="4.08819">
        <ele>266</ele>
        <time>2016-04-19T09:42:22Z</time>
      </trkpt>
      <trkpt lat="46.14817" lon="4.08815">
        <ele>266</ele>
        <time>2016-04-19T09:42:28Z</time>
      </trkpt>
      <trkpt lat="46.14819" lon="4.08809">
        <ele>266</ele>
        <time>2016-04-19T09:42:34Z</time>
      </trkpt>
      <trkpt lat="46.14821" lon="4.08803">
        <ele>267</ele>
        <time>2016-04-19T09:42:38Z</time>
      </trkpt>
      <trkpt lat="46.14828" lon="4.08785">
        <ele>268</ele>
        <time>2016-04-19T09:42:50Z</time>
      </trkpt>
      <trkpt lat="46.14835" lon="4.08765">
        <ele>267</ele>
        <time>2016-04-19T09:43:03Z</time>
      </trkpt>
      <trkpt lat="46.14831" lon="4.08761">
        <ele>268</ele>
        <time>2016-04-19T09:43:07Z</time>
      </trkpt>
      <trkpt lat="46.14829" lon="4.08759">
        <ele>268</ele>
        <time>2016-04-19T09:43:13Z</time>
      </trkpt>
      <trkpt lat="46.14826" lon="4.08763">
        <ele>268</ele>
        <time>2016-04-19T09:43:22Z</time>
      </trkpt>
      <trkpt lat="46.14823" lon="4.08761">
        <ele>268</ele>
        <time>2016-04-19T09:43:46Z</time>
      </trkpt>
      <trkpt lat="46.14822" lon="4.08768">
        <ele>268</ele>
        <time>2016-04-19T09:44:05Z</time>
      </trkpt>
      <trkpt lat="46.14817" lon="4.08769">
        <ele>268</ele>
        <time>2016-04-19T09:44:08Z</time>
      </trkpt>
      <trkpt lat="46.14818" lon="4.0878">
        <ele>269</ele>
        <time>2016-04-19T09:44:49Z</time>
      </trkpt>
      <trkpt lat="46.14825" lon="4.08781">
        <ele>268</ele>
        <time>2016-04-19T09:47:14Z</time>
      </trkpt>
      <trkpt lat="46.14824" lon="4.08775">
        <ele>269</ele>
        <time>2016-04-19T09:47:46Z</time>
      </trkpt>
      <trkpt lat="46.14826" lon="4.08767">
        <ele>269</ele>
        <time>2016-04-19T09:48:12Z</time>
      </trkpt>
      <trkpt lat="46.14829" lon="4.08762">
        <ele>269</ele>
        <time>2016-04-19T09:48:51Z</time>
      </trkpt>
      <trkpt lat="46.14831" lon="4.08766">
        <ele>268</ele>
        <time>2016-04-19T09:49:04Z</time>
      </trkpt>
      <trkpt lat="46.14833" lon="4.08773">
        <ele>268</ele>
        <time>2016-04-19T09:49:09Z</time>
      </trkpt>
      <trkpt lat="46.14832" lon="4.08779">
        <ele>268</ele>
        <time>2016-04-19T09:49:14Z</time>
      </trkpt>
      <trkpt lat="46.14831" lon="4.08786">
        <ele>268</ele>
        <time>2016-04-19T09:49:20Z</time>
      </trkpt>
      <trkpt lat="46.14823" lon="4.08811">
        <ele>265</ele>
        <time>2016-04-19T09:49:51Z</time>
      </trkpt>
      <trkpt lat="46.1482" lon="4.08817">
        <ele>264</ele>
        <time>2016-04-19T09:49:55Z</time>
      </trkpt>
      <trkpt lat="46.14817" lon="4.08823">
        <ele>263</ele>
        <time>2016-04-19T09:49:59Z</time>
      </trkpt>
      <trkpt lat="46.14814" lon="4.08829">
        <ele>263</ele>
        <time>2016-04-19T09:50:03Z</time>
      </trkpt>
      <trkpt lat="46.1481" lon="4.0884">
        <ele>265</ele>
        <time>2016-04-19T09:50:11Z</time>
      </trkpt>
      <trkpt lat="46.14805" lon="4.0884">
        <ele>265</ele>
        <time>2016-04-19T09:50:15Z</time>
      </trkpt>
      <trkpt lat="46.14797" lon="4.08831">
        <ele>265</ele>
        <time>2016-04-19T09:50:23Z</time>
      </trkpt>
      <trkpt lat="46.14787" lon="4.08817">
        <ele>265</ele>
        <time>2016-04-19T09:50:35Z</time>
      </trkpt>
      <trkpt lat="46.14785" lon="4.08815">
        <ele>264</ele>
        <time>2016-04-19T09:50:46Z</time>
      </trkpt>
      <trkpt lat="46.14781" lon="4.08809">
        <ele>263</ele>
        <time>2016-04-19T09:50:51Z</time>
      </trkpt>
      <trkpt lat="46.14765" lon="4.08782">
        <ele>262</ele>
        <time>2016-04-19T09:51:12Z</time>
      </trkpt>
      <trkpt lat="46.14759" lon="4.0877">
        <ele>262</ele>
        <time>2016-04-19T09:51:21Z</time>
      </trkpt>
      <trkpt lat="46.14741" lon="4.08721">
        <ele>260</ele>
        <time>2016-04-19T09:51:54Z</time>
      </trkpt>
      <trkpt lat="46.1474" lon="4.08714">
        <ele>260</ele>
        <time>2016-04-19T09:51:58Z</time>
      </trkpt>
      <trkpt lat="46.14743" lon="4.08683">
        <ele>261</ele>
        <time>2016-04-19T09:52:21Z</time>
      </trkpt>
      <trkpt lat="46.14746" lon="4.08677">
        <ele>261</ele>
        <time>2016-04-19T09:52:29Z</time>
      </trkpt>
      <trkpt lat="46.1475" lon="4.08674">
        <ele>261</ele>
        <time>2016-04-19T09:52:33Z</time>
      </trkpt>
      <trkpt lat="46.14753" lon="4.08668">
        <ele>261</ele>
        <time>2016-04-19T09:52:38Z</time>
      </trkpt>
      <trkpt lat="46.14751" lon="4.08661">
        <ele>261</ele>
        <time>2016-04-19T09:52:43Z</time>
      </trkpt>
      <trkpt lat="46.14748" lon="4.08654">
        <ele>260</ele>
        <time>2016-04-19T09:52:49Z</time>
      </trkpt>
      <trkpt lat="46.14744" lon="4.08641">
        <ele>259</ele>
        <time>2016-04-19T09:52:58Z</time>
      </trkpt>
      <trkpt lat="46.1474" lon="4.08626">
        <ele>260</ele>
        <time>2016-04-19T09:53:08Z</time>
      </trkpt>
      <trkpt lat="46.14737" lon="4.08613">
        <ele>260</ele>
        <time>2016-04-19T09:53:16Z</time>
      </trkpt>
      <trkpt lat="46.14733" lon="4.086">
        <ele>261</ele>
        <time>2016-04-19T09:53:25Z</time>
      </trkpt>
      <trkpt lat="46.14719" lon="4.08553">
        <ele>261</ele>
        <time>2016-04-19T09:53:56Z</time>
      </trkpt>
      <trkpt lat="46.14716" lon="4.08547">
        <ele>261</ele>
        <time>2016-04-19T09:54:01Z</time>
      </trkpt>
      <trkpt lat="46.14708" lon="4.08514">
        <ele>260</ele>
        <time>2016-04-19T09:54:29Z</time>
      </trkpt>
      <trkpt lat="46.14706" lon="4.08507">
        <ele>260</ele>
        <time>2016-04-19T09:54:34Z</time>
      </trkpt>
      <trkpt lat="46.14701" lon="4.08487">
        <ele>260</ele>
        <time>2016-04-19T09:54:47Z</time>
      </trkpt>
      <trkpt lat="46.147" lon="4.0848">
        <ele>260</ele>
        <time>2016-04-19T09:54:51Z</time>
      </trkpt>
      <trkpt lat="46.14702" lon="4.08474">
        <ele>261</ele>
        <time>2016-04-19T09:54:55Z</time>
      </trkpt>
      <trkpt lat="46.14706" lon="4.08469">
        <ele>261</ele>
        <time>2016-04-19T09:54:59Z</time>
      </trkpt>
      <trkpt lat="46.14723" lon="4.08455">
        <ele>261</ele>
        <time>2016-04-19T09:55:16Z</time>
      </trkpt>
      <trkpt lat="46.14723" lon="4.08447">
        <ele>261</ele>
        <time>2016-04-19T09:55:22Z</time>
      </trkpt>
      <trkpt lat="46.14721" lon="4.08427">
        <ele>261</ele>
        <time>2016-04-19T09:55:34Z</time>
      </trkpt>
      <trkpt lat="46.14706" lon="4.08401">
        <ele>262</ele>
        <time>2016-04-19T09:55:54Z</time>
      </trkpt>
      <trkpt lat="46.14691" lon="4.08364">
        <ele>264</ele>
        <time>2016-04-19T09:56:19Z</time>
      </trkpt>
      <trkpt lat="46.14688" lon="4.08358">
        <ele>264</ele>
        <time>2016-04-19T09:56:24Z</time>
      </trkpt>
      <trkpt lat="46.14687" lon="4.08353">
        <ele>264</ele>
        <time>2016-04-19T09:56:32Z</time>
      </trkpt>
      <trkpt lat="46.14673" lon="4.08308">
        <ele>264</ele>
        <time>2016-04-19T09:57:05Z</time>
      </trkpt>
      <trkpt lat="46.14671" lon="4.0828">
        <ele>264</ele>
        <time>2016-04-19T09:57:21Z</time>
      </trkpt>
      <trkpt lat="46.14668" lon="4.08223">
        <ele>267</ele>
        <time>2016-04-19T09:57:53Z</time>
      </trkpt>
      <trkpt lat="46.14663" lon="4.08187">
        <ele>267</ele>
        <time>2016-04-19T09:58:14Z</time>
      </trkpt>
      <trkpt lat="46.14662" lon="4.0818">
        <ele>268</ele>
        <time>2016-04-19T09:58:18Z</time>
      </trkpt>
      <trkpt lat="46.14662" lon="4.08172">
        <ele>268</ele>
        <time>2016-04-19T09:58:23Z</time>
      </trkpt>
      <trkpt lat="46.14665" lon="4.08171">
        <ele>268</ele>
        <time>2016-04-19T09:58:40Z</time>
      </trkpt>
      <trkpt lat="46.14667" lon="4.08165">
        <ele>268</ele>
        <time>2016-04-19T09:59:03Z</time>
      </trkpt>
      <trkpt lat="46.1467" lon="4.0816">
        <ele>269</ele>
        <time>2016-04-19T09:59:06Z</time>
      </trkpt>
      <trkpt lat="46.14673" lon="4.08153">
        <ele>269</ele>
        <time>2016-04-19T09:59:10Z</time>
      </trkpt>
      <trkpt lat="46.14676" lon="4.08147">
        <ele>271</ele>
        <time>2016-04-19T09:59:14Z</time>
      </trkpt>
      <trkpt lat="46.14683" lon="4.08137">
        <ele>268</ele>
        <time>2016-04-19T09:59:22Z</time>
      </trkpt>
      <trkpt lat="46.14684" lon="4.08131">
        <ele>268</ele>
        <time>2016-04-19T09:59:25Z</time>
      </trkpt>
      <trkpt lat="46.14691" lon="4.08112">
        <ele>269</ele>
        <time>2016-04-19T09:59:37Z</time>
      </trkpt>
      <trkpt lat="46.14694" lon="4.08106">
        <ele>269</ele>
        <time>2016-04-19T09:59:41Z</time>
      </trkpt>
      <trkpt lat="46.14697" lon="4.081">
        <ele>268</ele>
        <time>2016-04-19T09:59:46Z</time>
      </trkpt>
      <trkpt lat="46.14704" lon="4.08044">
        <ele>269</ele>
        <time>2016-04-19T10:00:19Z</time>
      </trkpt>
      <trkpt lat="46.14704" lon="4.08037">
        <ele>270</ele>
        <time>2016-04-19T10:00:23Z</time>
      </trkpt>
      <trkpt lat="46.14706" lon="4.0798">
        <ele>271</ele>
        <time>2016-04-19T10:00:56Z</time>
      </trkpt>
      <trkpt lat="46.14706" lon="4.07958">
        <ele>271</ele>
        <time>2016-04-19T10:01:08Z</time>
      </trkpt>
      <trkpt lat="46.14707" lon="4.0793">
        <ele>270</ele>
        <time>2016-04-19T10:01:24Z</time>
      </trkpt>
      <trkpt lat="46.14708" lon="4.07909">
        <ele>271</ele>
        <time>2016-04-19T10:01:36Z</time>
      </trkpt>
      <trkpt lat="46.14709" lon="4.07895">
        <ele>270</ele>
        <time>2016-04-19T10:01:44Z</time>
      </trkpt>
      <trkpt lat="46.14713" lon="4.07843">
        <ele>271</ele>
        <time>2016-04-19T10:02:16Z</time>
      </trkpt>
      <trkpt lat="46.14713" lon="4.07837">
        <ele>271</ele>
        <time>2016-04-19T10:02:20Z</time>
      </trkpt>
      <trkpt lat="46.14715" lon="4.07808">
        <ele>271</ele>
        <time>2016-04-19T10:02:36Z</time>
      </trkpt>
      <trkpt lat="46.14716" lon="4.07795">
        <ele>270</ele>
        <time>2016-04-19T10:02:44Z</time>
      </trkpt>
      <trkpt lat="46.14716" lon="4.07788">
        <ele>270</ele>
        <time>2016-04-19T10:02:49Z</time>
      </trkpt>
      <trkpt lat="46.14714" lon="4.07755">
        <ele>270</ele>
        <time>2016-04-19T10:03:20Z</time>
      </trkpt>
      <trkpt lat="46.14714" lon="4.07741">
        <ele>270</ele>
        <time>2016-04-19T10:03:28Z</time>
      </trkpt>
      <trkpt lat="46.14713" lon="4.07712">
        <ele>268</ele>
        <time>2016-04-19T10:03:45Z</time>
      </trkpt>
      <trkpt lat="46.1471" lon="4.07683">
        <ele>272</ele>
        <time>2016-04-19T10:04:01Z</time>
      </trkpt>
      <trkpt lat="46.14709" lon="4.07669">
        <ele>272</ele>
        <time>2016-04-19T10:04:09Z</time>
      </trkpt>
      <trkpt lat="46.14708" lon="4.07656">
        <ele>273</ele>
        <time>2016-04-19T10:04:17Z</time>
      </trkpt>
      <trkpt lat="46.14707" lon="4.07642">
        <ele>273</ele>
        <time>2016-04-19T10:04:25Z</time>
      </trkpt>
      <trkpt lat="46.14705" lon="4.07586">
        <ele>278</ele>
        <time>2016-04-19T10:04:59Z</time>
      </trkpt>
      <trkpt lat="46.14707" lon="4.0758">
        <ele>279</ele>
        <time>2016-04-19T10:05:03Z</time>
      </trkpt>
      <trkpt lat="46.14709" lon="4.07573">
        <ele>279</ele>
        <time>2016-04-19T10:05:07Z</time>
      </trkpt>
      <trkpt lat="46.14711" lon="4.07568">
        <ele>279</ele>
        <time>2016-04-19T10:05:11Z</time>
      </trkpt>
      <trkpt lat="46.14717" lon="4.07547">
        <ele>279</ele>
        <time>2016-04-19T10:05:25Z</time>
      </trkpt>
      <trkpt lat="46.14719" lon="4.07532">
        <ele>280</ele>
        <time>2016-04-19T10:05:36Z</time>
      </trkpt>
      <trkpt lat="46.14709" lon="4.07477">
        <ele>281</ele>
        <time>2016-04-19T10:06:08Z</time>
      </trkpt>
      <trkpt lat="46.14709" lon="4.0747">
        <ele>281</ele>
        <time>2016-04-19T10:06:12Z</time>
      </trkpt>
      <trkpt lat="46.1471" lon="4.07456">
        <ele>281</ele>
        <time>2016-04-19T10:06:22Z</time>
      </trkpt>
      <trkpt lat="46.14716" lon="4.07405">
        <ele>282</ele>
        <time>2016-04-19T10:06:54Z</time>
      </trkpt>
      <trkpt lat="46.14717" lon="4.07399">
        <ele>282</ele>
        <time>2016-04-19T10:06:58Z</time>
      </trkpt>
      <trkpt lat="46.14718" lon="4.07392">
        <ele>283</ele>
        <time>2016-04-19T10:07:02Z</time>
      </trkpt>
      <trkpt lat="46.14721" lon="4.0737">
        <ele>284</ele>
        <time>2016-04-19T10:07:16Z</time>
      </trkpt>
      <trkpt lat="46.14722" lon="4.07357">
        <ele>283</ele>
        <time>2016-04-19T10:07:24Z</time>
      </trkpt>
      <trkpt lat="46.14728" lon="4.07305">
        <ele>286</ele>
        <time>2016-04-19T10:07:57Z</time>
      </trkpt>
      <trkpt lat="46.1473" lon="4.07284">
        <ele>289</ele>
        <time>2016-04-19T10:08:09Z</time>
      </trkpt>
      <trkpt lat="46.14731" lon="4.07269">
        <ele>289</ele>
        <time>2016-04-19T10:08:18Z</time>
      </trkpt>
      <trkpt lat="46.14729" lon="4.07263">
        <ele>289</ele>
        <time>2016-04-19T10:08:22Z</time>
      </trkpt>
      <trkpt lat="46.14725" lon="4.07259">
        <ele>290</ele>
        <time>2016-04-19T10:08:26Z</time>
      </trkpt>
      <trkpt lat="46.1471" lon="4.07257">
        <ele>289</ele>
        <time>2016-04-19T10:08:38Z</time>
      </trkpt>
      <trkpt lat="46.1469" lon="4.07254">
        <ele>286</ele>
        <time>2016-04-19T10:08:54Z</time>
      </trkpt>
      <trkpt lat="46.1468" lon="4.07252">
        <ele>287</ele>
        <time>2016-04-19T10:09:02Z</time>
      </trkpt>
      <trkpt lat="46.14675" lon="4.07252">
        <ele>286</ele>
        <time>2016-04-19T10:09:06Z</time>
      </trkpt>
      <trkpt lat="46.14664" lon="4.07249">
        <ele>287</ele>
        <time>2016-04-19T10:09:15Z</time>
      </trkpt>
      <trkpt lat="46.14659" lon="4.07248">
        <ele>286</ele>
        <time>2016-04-19T10:09:20Z</time>
      </trkpt>
      <trkpt lat="46.14639" lon="4.07247">
        <ele>287</ele>
        <time>2016-04-19T10:09:37Z</time>
      </trkpt>
      <trkpt lat="46.14634" lon="4.07247">
        <ele>287</ele>
        <time>2016-04-19T10:09:41Z</time>
      </trkpt>
      <trkpt lat="46.14624" lon="4.07248">
        <ele>287</ele>
        <time>2016-04-19T10:09:49Z</time>
      </trkpt>
      <trkpt lat="46.14619" lon="4.07248">
        <ele>288</ele>
        <time>2016-04-19T10:09:53Z</time>
      </trkpt>
      <trkpt lat="46.146" lon="4.0724">
        <ele>288</ele>
        <time>2016-04-19T10:10:10Z</time>
      </trkpt>
      <trkpt lat="46.14596" lon="4.07236">
        <ele>288</ele>
        <time>2016-04-19T10:10:14Z</time>
      </trkpt>
      <trkpt lat="46.14588" lon="4.07228">
        <ele>288</ele>
        <time>2016-04-19T10:10:23Z</time>
      </trkpt>
      <trkpt lat="46.14586" lon="4.0722">
        <ele>288</ele>
        <time>2016-04-19T10:10:28Z</time>
      </trkpt>
      <trkpt lat="46.14584" lon="4.07213">
        <ele>287</ele>
        <time>2016-04-19T10:10:32Z</time>
      </trkpt>
      <trkpt lat="46.14584" lon="4.07206">
        <ele>287</ele>
        <time>2016-04-19T10:10:36Z</time>
      </trkpt>
      <trkpt lat="46.14586" lon="4.07199">
        <ele>287</ele>
        <time>2016-04-19T10:10:40Z</time>
      </trkpt>
      <trkpt lat="46.14589" lon="4.07194">
        <ele>286</ele>
        <time>2016-04-19T10:10:44Z</time>
      </trkpt>
      <trkpt lat="46.14608" lon="4.07169">
        <ele>285</ele>
        <time>2016-04-19T10:11:06Z</time>
      </trkpt>
      <trkpt lat="46.14634" lon="4.07135">
        <ele>285</ele>
        <time>2016-04-19T10:11:37Z</time>
      </trkpt>
      <trkpt lat="46.14637" lon="4.07128">
        <ele>286</ele>
        <time>2016-04-19T10:11:42Z</time>
      </trkpt>
      <trkpt lat="46.1464" lon="4.07122">
        <ele>286</ele>
        <time>2016-04-19T10:11:47Z</time>
      </trkpt>
      <trkpt lat="46.14644" lon="4.07116">
        <ele>286</ele>
        <time>2016-04-19T10:11:52Z</time>
      </trkpt>
      <trkpt lat="46.14647" lon="4.07109">
        <ele>286</ele>
        <time>2016-04-19T10:11:57Z</time>
      </trkpt>
      <trkpt lat="46.14667" lon="4.07061">
        <ele>290</ele>
        <time>2016-04-19T10:12:31Z</time>
      </trkpt>
      <trkpt lat="46.14685" lon="4.07012">
        <ele>291</ele>
        <time>2016-04-19T10:13:03Z</time>
      </trkpt>
      <trkpt lat="46.14698" lon="4.06974">
        <ele>292</ele>
        <time>2016-04-19T10:13:28Z</time>
      </trkpt>
      <trkpt lat="46.1471" lon="4.06942">
        <ele>290</ele>
        <time>2016-04-19T10:13:50Z</time>
      </trkpt>
      <trkpt lat="46.14726" lon="4.06899">
        <ele>292</ele>
        <time>2016-04-19T10:14:20Z</time>
      </trkpt>
      <trkpt lat="46.14728" lon="4.06894">
        <ele>292</ele>
        <time>2016-04-19T10:14:24Z</time>
      </trkpt>
      <trkpt lat="46.14733" lon="4.06881">
        <ele>292</ele>
        <time>2016-04-19T10:14:32Z</time>
      </trkpt>
      <trkpt lat="46.14735" lon="4.06875">
        <ele>292</ele>
        <time>2016-04-19T10:14:36Z</time>
      </trkpt>
      <trkpt lat="46.14753" lon="4.06831">
        <ele>295</ele>
        <time>2016-04-19T10:15:07Z</time>
      </trkpt>
      <trkpt lat="46.14756" lon="4.06825">
        <ele>296</ele>
        <time>2016-04-19T10:15:12Z</time>
      </trkpt>
      <trkpt lat="46.14757" lon="4.06818">
        <ele>296</ele>
        <time>2016-04-19T10:15:17Z</time>
      </trkpt>
      <trkpt lat="46.14774" lon="4.0677">
        <ele>297</ele>
        <time>2016-04-19T10:15:51Z</time>
      </trkpt>
      <trkpt lat="46.14793" lon="4.06726">
        <ele>298</ele>
        <time>2016-04-19T10:16:24Z</time>
      </trkpt>
      <trkpt lat="46.14811" lon="4.06681">
        <ele>297</ele>
        <time>2016-04-19T10:16:55Z</time>
      </trkpt>
      <trkpt lat="46.14817" lon="4.06669">
        <ele>298</ele>
        <time>2016-04-19T10:17:06Z</time>
      </trkpt>
      <trkpt lat="46.14821" lon="4.06655">
        <ele>297</ele>
        <time>2016-04-19T10:17:17Z</time>
      </trkpt>
      <trkpt lat="46.14838" lon="4.06618">
        <ele>299</ele>
        <time>2016-04-19T10:17:47Z</time>
      </trkpt>
      <trkpt lat="46.14841" lon="4.06612">
        <ele>298</ele>
        <time>2016-04-19T10:17:51Z</time>
      </trkpt>
      <trkpt lat="46.14845" lon="4.06608">
        <ele>298</ele>
        <time>2016-04-19T10:17:56Z</time>
      </trkpt>
      <trkpt lat="46.14848" lon="4.06603">
        <ele>299</ele>
        <time>2016-04-19T10:18:01Z</time>
      </trkpt>
      <trkpt lat="46.14853" lon="4.06601">
        <ele>301</ele>
        <time>2016-04-19T10:18:07Z</time>
      </trkpt>
      <trkpt lat="46.14863" lon="4.06601">
        <ele>304</ele>
        <time>2016-04-19T10:18:20Z</time>
      </trkpt>
      <trkpt lat="46.14867" lon="4.066">
        <ele>305</ele>
        <time>2016-04-19T10:18:26Z</time>
      </trkpt>
      <trkpt lat="46.14869" lon="4.06593">
        <ele>305</ele>
        <time>2016-04-19T10:18:33Z</time>
      </trkpt>
      <trkpt lat="46.14871" lon="4.06586">
        <ele>307</ele>
        <time>2016-04-19T10:18:39Z</time>
      </trkpt>
      <trkpt lat="46.14877" lon="4.06564">
        <ele>304</ele>
        <time>2016-04-19T10:18:54Z</time>
      </trkpt>
      <trkpt lat="46.14878" lon="4.06557">
        <ele>304</ele>
        <time>2016-04-19T10:18:59Z</time>
      </trkpt>
      <trkpt lat="46.14883" lon="4.06537">
        <ele>305</ele>
        <time>2016-04-19T10:19:16Z</time>
      </trkpt>
      <trkpt lat="46.14886" lon="4.06524">
        <ele>305</ele>
        <time>2016-04-19T10:19:27Z</time>
      </trkpt>
      <trkpt lat="46.14887" lon="4.06517">
        <ele>306</ele>
        <time>2016-04-19T10:19:31Z</time>
      </trkpt>
      <trkpt lat="46.14888" lon="4.06511">
        <ele>305</ele>
        <time>2016-04-19T10:19:36Z</time>
      </trkpt>
      <trkpt lat="46.14889" lon="4.06503">
        <ele>305</ele>
        <time>2016-04-19T10:19:40Z</time>
      </trkpt>
      <trkpt lat="46.14896" lon="4.06492">
        <ele>306</ele>
        <time>2016-04-19T10:19:50Z</time>
      </trkpt>
      <trkpt lat="46.149" lon="4.0649">
        <ele>307</ele>
        <time>2016-04-19T10:19:55Z</time>
      </trkpt>
      <trkpt lat="46.14928" lon="4.06496">
        <ele>311</ele>
        <time>2016-04-19T10:20:28Z</time>
      </trkpt>
      <trkpt lat="46.14933" lon="4.06497">
        <ele>312</ele>
        <time>2016-04-19T10:20:36Z</time>
      </trkpt>
      <trkpt lat="46.14938" lon="4.06497">
        <ele>312</ele>
        <time>2016-04-19T10:20:41Z</time>
      </trkpt>
      <trkpt lat="46.14943" lon="4.06494">
        <ele>312</ele>
        <time>2016-04-19T10:20:46Z</time>
      </trkpt>
      <trkpt lat="46.14952" lon="4.06488">
        <ele>313</ele>
        <time>2016-04-19T10:20:56Z</time>
      </trkpt>
      <trkpt lat="46.14954" lon="4.06481">
        <ele>313</ele>
        <time>2016-04-19T10:21:01Z</time>
      </trkpt>
      <trkpt lat="46.14955" lon="4.06474">
        <ele>313</ele>
        <time>2016-04-19T10:21:08Z</time>
      </trkpt>
      <trkpt lat="46.14954" lon="4.06452">
        <ele>315</ele>
        <time>2016-04-19T10:21:24Z</time>
      </trkpt>
      <trkpt lat="46.14954" lon="4.06425">
        <ele>315</ele>
        <time>2016-04-19T10:21:43Z</time>
      </trkpt>
      <trkpt lat="46.14953" lon="4.06417">
        <ele>316</ele>
        <time>2016-04-19T10:21:48Z</time>
      </trkpt>
      <trkpt lat="46.14953" lon="4.0638">
        <ele>318</ele>
        <time>2016-04-19T10:22:13Z</time>
      </trkpt>
      <trkpt lat="46.14952" lon="4.06365">
        <ele>318</ele>
        <time>2016-04-19T10:22:23Z</time>
      </trkpt>
      <trkpt lat="46.1495" lon="4.06345">
        <ele>319</ele>
        <time>2016-04-19T10:22:36Z</time>
      </trkpt>
      <trkpt lat="46.14948" lon="4.06329">
        <ele>319</ele>
        <time>2016-04-19T10:22:46Z</time>
      </trkpt>
      <trkpt lat="46.14947" lon="4.06316">
        <ele>318</ele>
        <time>2016-04-19T10:22:54Z</time>
      </trkpt>
      <trkpt lat="46.14946" lon="4.06295">
        <ele>320</ele>
        <time>2016-04-19T10:23:08Z</time>
      </trkpt>
      <trkpt lat="46.14945" lon="4.06288">
        <ele>319</ele>
        <time>2016-04-19T10:23:13Z</time>
      </trkpt>
      <trkpt lat="46.14945" lon="4.06253">
        <ele>317</ele>
        <time>2016-04-19T10:23:38Z</time>
      </trkpt>
      <trkpt lat="46.14945" lon="4.06203">
        <ele>319</ele>
        <time>2016-04-19T10:24:11Z</time>
      </trkpt>
      <trkpt lat="46.14945" lon="4.06195">
        <ele>318</ele>
        <time>2016-04-19T10:24:16Z</time>
      </trkpt>
      <trkpt lat="46.14945" lon="4.0618">
        <ele>317</ele>
        <time>2016-04-19T10:24:27Z</time>
      </trkpt>
      <trkpt lat="46.14945" lon="4.06166">
        <ele>317</ele>
        <time>2016-04-19T10:24:36Z</time>
      </trkpt>
      <trkpt lat="46.14947" lon="4.06143">
        <ele>318</ele>
        <time>2016-04-19T10:24:52Z</time>
      </trkpt>
      <trkpt lat="46.14947" lon="4.06129">
        <ele>317</ele>
        <time>2016-04-19T10:25:01Z</time>
      </trkpt>
      <trkpt lat="46.14946" lon="4.06115">
        <ele>319</ele>
        <time>2016-04-19T10:25:10Z</time>
      </trkpt>
      <trkpt lat="46.14946" lon="4.06108">
        <ele>319</ele>
        <time>2016-04-19T10:25:15Z</time>
      </trkpt>
      <trkpt lat="46.14945" lon="4.06094">
        <ele>318</ele>
        <time>2016-04-19T10:25:25Z</time>
      </trkpt>
      <trkpt lat="46.14944" lon="4.06087">
        <ele>318</ele>
        <time>2016-04-19T10:25:29Z</time>
      </trkpt>
      <trkpt lat="46.14941" lon="4.06066">
        <ele>319</ele>
        <time>2016-04-19T10:25:44Z</time>
      </trkpt>
      <trkpt lat="46.14939" lon="4.06052">
        <ele>319</ele>
        <time>2016-04-19T10:25:58Z</time>
      </trkpt>
      <trkpt lat="46.14939" lon="4.06038">
        <ele>319</ele>
        <time>2016-04-19T10:26:07Z</time>
      </trkpt>
      <trkpt lat="46.1494" lon="4.06031">
        <ele>319</ele>
        <time>2016-04-19T10:26:11Z</time>
      </trkpt>
      <trkpt lat="46.14938" lon="4.06024">
        <ele>319</ele>
        <time>2016-04-19T10:26:16Z</time>
      </trkpt>
      <trkpt lat="46.14938" lon="4.06017">
        <ele>320</ele>
        <time>2016-04-19T10:26:22Z</time>
      </trkpt>
      <trkpt lat="46.14937" lon="4.06009">
        <ele>320</ele>
        <time>2016-04-19T10:26:31Z</time>
      </trkpt>
      <trkpt lat="46.14937" lon="4.06002">
        <ele>319</ele>
        <time>2016-04-19T10:26:37Z</time>
      </trkpt>
      <trkpt lat="46.14937" lon="4.05995">
        <ele>319</ele>
        <time>2016-04-19T10:26:42Z</time>
      </trkpt>
      <trkpt lat="46.14935" lon="4.05973">
        <ele>320</ele>
        <time>2016-04-19T10:26:57Z</time>
      </trkpt>
      <trkpt lat="46.14937" lon="4.05959">
        <ele>320</ele>
        <time>2016-04-19T10:27:06Z</time>
      </trkpt>
      <trkpt lat="46.14942" lon="4.05929">
        <ele>321</ele>
        <time>2016-04-19T10:27:22Z</time>
      </trkpt>
      <trkpt lat="46.14942" lon="4.05922">
        <ele>322</ele>
        <time>2016-04-19T10:27:26Z</time>
      </trkpt>
      <trkpt lat="46.14943" lon="4.05914">
        <ele>322</ele>
        <time>2016-04-19T10:27:32Z</time>
      </trkpt>
      <trkpt lat="46.1494" lon="4.05901">
        <ele>322</ele>
        <time>2016-04-19T10:27:40Z</time>
      </trkpt>
      <trkpt lat="46.14937" lon="4.05887">
        <ele>321</ele>
        <time>2016-04-19T10:27:49Z</time>
      </trkpt>
      <trkpt lat="46.14934" lon="4.05881">
        <ele>321</ele>
        <time>2016-04-19T10:27:53Z</time>
      </trkpt>
      <trkpt lat="46.14932" lon="4.05874">
        <ele>322</ele>
        <time>2016-04-19T10:27:58Z</time>
      </trkpt>
      <trkpt lat="46.14927" lon="4.05861">
        <ele>320</ele>
        <time>2016-04-19T10:28:07Z</time>
      </trkpt>
      <trkpt lat="46.14927" lon="4.05857">
        <ele>320</ele>
        <time>2016-04-19T10:28:13Z</time>
      </trkpt>
      <trkpt lat="46.14925" lon="4.0585">
        <ele>319</ele>
        <time>2016-04-19T10:28:19Z</time>
      </trkpt>
      <trkpt lat="46.14922" lon="4.05843">
        <ele>320</ele>
        <time>2016-04-19T10:28:23Z</time>
      </trkpt>
      <trkpt lat="46.14919" lon="4.05837">
        <ele>319</ele>
        <time>2016-04-19T10:28:28Z</time>
      </trkpt>
      <trkpt lat="46.14916" lon="4.05823">
        <ele>318</ele>
        <time>2016-04-19T10:28:38Z</time>
      </trkpt>
      <trkpt lat="46.14912" lon="4.05809">
        <ele>318</ele>
        <time>2016-04-19T10:28:46Z</time>
      </trkpt>
      <trkpt lat="46.14908" lon="4.05779">
        <ele>318</ele>
        <time>2016-04-19T10:29:02Z</time>
      </trkpt>
      <trkpt lat="46.14909" lon="4.05758">
        <ele>316</ele>
        <time>2016-04-19T10:29:15Z</time>
      </trkpt>
      <trkpt lat="46.14908" lon="4.05751">
        <ele>315</ele>
        <time>2016-04-19T10:29:23Z</time>
      </trkpt>
      <trkpt lat="46.14907" lon="4.05744">
        <ele>315</ele>
        <time>2016-04-19T10:29:28Z</time>
      </trkpt>
      <trkpt lat="46.14902" lon="4.05695">
        <ele>320</ele>
        <time>2016-04-19T10:30:00Z</time>
      </trkpt>
      <trkpt lat="46.14902" lon="4.05688">
        <ele>319</ele>
        <time>2016-04-19T10:30:06Z</time>
      </trkpt>
      <trkpt lat="46.149" lon="4.05682">
        <ele>319</ele>
        <time>2016-04-19T10:30:10Z</time>
      </trkpt>
      <trkpt lat="46.149" lon="4.05675">
        <ele>319</ele>
        <time>2016-04-19T10:30:14Z</time>
      </trkpt>
      <trkpt lat="46.14902" lon="4.05654">
        <ele>318</ele>
        <time>2016-04-19T10:30:26Z</time>
      </trkpt>
      <trkpt lat="46.14908" lon="4.05612">
        <ele>319</ele>
        <time>2016-04-19T10:30:57Z</time>
      </trkpt>
      <trkpt lat="46.14912" lon="4.0556">
        <ele>320</ele>
        <time>2016-04-19T10:31:29Z</time>
      </trkpt>
      <trkpt lat="46.14912" lon="4.05553">
        <ele>320</ele>
        <time>2016-04-19T10:31:34Z</time>
      </trkpt>
      <trkpt lat="46.14912" lon="4.05538">
        <ele>321</ele>
        <time>2016-04-19T10:32:05Z</time>
      </trkpt>
      <trkpt lat="46.14917" lon="4.05494">
        <ele>322</ele>
        <time>2016-04-19T10:32:36Z</time>
      </trkpt>
      <trkpt lat="46.14921" lon="4.05443">
        <ele>323</ele>
        <time>2016-04-19T10:33:06Z</time>
      </trkpt>
      <trkpt lat="46.14925" lon="4.05424">
        <ele>323</ele>
        <time>2016-04-19T10:33:20Z</time>
      </trkpt>
      <trkpt lat="46.14925" lon="4.05417">
        <ele>323</ele>
        <time>2016-04-19T10:33:25Z</time>
      </trkpt>
      <trkpt lat="46.14926" lon="4.0541">
        <ele>323</ele>
        <time>2016-04-19T10:33:29Z</time>
      </trkpt>
      <trkpt lat="46.14928" lon="4.0536">
        <ele>324</ele>
        <time>2016-04-19T10:33:59Z</time>
      </trkpt>
      <trkpt lat="46.14929" lon="4.05311">
        <ele>325</ele>
        <time>2016-04-19T10:34:31Z</time>
      </trkpt>
      <trkpt lat="46.14931" lon="4.0529">
        <ele>325</ele>
        <time>2016-04-19T10:34:44Z</time>
      </trkpt>
      <trkpt lat="46.14932" lon="4.05276">
        <ele>325</ele>
        <time>2016-04-19T10:34:55Z</time>
      </trkpt>
      <trkpt lat="46.14932" lon="4.0527">
        <ele>325</ele>
        <time>2016-04-19T10:35:00Z</time>
      </trkpt>
      <trkpt lat="46.14931" lon="4.05261">
        <ele>324</ele>
        <time>2016-04-19T10:35:42Z</time>
      </trkpt>
      <trkpt lat="46.14938" lon="4.05218">
        <ele>322</ele>
        <time>2016-04-19T10:36:38Z</time>
      </trkpt>
      <trkpt lat="46.14939" lon="4.05211">
        <ele>323</ele>
        <time>2016-04-19T10:36:42Z</time>
      </trkpt>
      <trkpt lat="46.14942" lon="4.05204">
        <ele>323</ele>
        <time>2016-04-19T10:36:46Z</time>
      </trkpt>
      <trkpt lat="46.14949" lon="4.05183">
        <ele>320</ele>
        <time>2016-04-19T10:37:02Z</time>
      </trkpt>
      <trkpt lat="46.14951" lon="4.05176">
        <ele>320</ele>
        <time>2016-04-19T10:37:07Z</time>
      </trkpt>
      <trkpt lat="46.14959" lon="4.05136">
        <ele>318</ele>
        <time>2016-04-19T10:37:31Z</time>
      </trkpt>
      <trkpt lat="46.1495" lon="4.05103">
        <ele>315</ele>
        <time>2016-04-19T10:37:52Z</time>
      </trkpt>
      <trkpt lat="46.14947" lon="4.05097">
        <ele>316</ele>
        <time>2016-04-19T10:37:57Z</time>
      </trkpt>
      <trkpt lat="46.14945" lon="4.05091">
        <ele>315</ele>
        <time>2016-04-19T10:38:02Z</time>
      </trkpt>
      <trkpt lat="46.14941" lon="4.05086">
        <ele>315</ele>
        <time>2016-04-19T10:38:07Z</time>
      </trkpt>
      <trkpt lat="46.14938" lon="4.05081">
        <ele>315</ele>
        <time>2016-04-19T10:38:11Z</time>
      </trkpt>
      <trkpt lat="46.14929" lon="4.05064">
        <ele>315</ele>
        <time>2016-04-19T10:38:23Z</time>
      </trkpt>
      <trkpt lat="46.1492" lon="4.05039">
        <ele>312</ele>
        <time>2016-04-19T10:39:20Z</time>
      </trkpt>
      <trkpt lat="46.14921" lon="4.05031">
        <ele>312</ele>
        <time>2016-04-19T10:39:25Z</time>
      </trkpt>
      <trkpt lat="46.14924" lon="4.05026">
        <ele>313</ele>
        <time>2016-04-19T10:39:29Z</time>
      </trkpt>
      <trkpt lat="46.14929" lon="4.05024">
        <ele>313</ele>
        <time>2016-04-19T10:39:33Z</time>
      </trkpt>
      <trkpt lat="46.14943" lon="4.05029">
        <ele>315</ele>
        <time>2016-04-19T10:39:45Z</time>
      </trkpt>
      <trkpt lat="46.14952" lon="4.05034">
        <ele>316</ele>
        <time>2016-04-19T10:39:54Z</time>
      </trkpt>
      <trkpt lat="46.14958" lon="4.05036">
        <ele>315</ele>
        <time>2016-04-19T10:40:00Z</time>
      </trkpt>
      <trkpt lat="46.14991" lon="4.05055">
        <ele>312</ele>
        <time>2016-04-19T10:40:30Z</time>
      </trkpt>
      <trkpt lat="46.15001" lon="4.05058">
        <ele>312</ele>
        <time>2016-04-19T10:40:37Z</time>
      </trkpt>
      <trkpt lat="46.15011" lon="4.05061">
        <ele>311</ele>
        <time>2016-04-19T10:40:47Z</time>
      </trkpt>
      <trkpt lat="46.1502" lon="4.0506">
        <ele>311</ele>
        <time>2016-04-19T10:40:55Z</time>
      </trkpt>
      <trkpt lat="46.15033" lon="4.05049">
        <ele>310</ele>
        <time>2016-04-19T10:41:07Z</time>
      </trkpt>
      <trkpt lat="46.15039" lon="4.05036">
        <ele>310</ele>
        <time>2016-04-19T10:41:15Z</time>
      </trkpt>
      <trkpt lat="46.15042" lon="4.05021">
        <ele>310</ele>
        <time>2016-04-19T10:41:23Z</time>
      </trkpt>
      <trkpt lat="46.15042" lon="4.05013">
        <ele>310</ele>
        <time>2016-04-19T10:41:27Z</time>
      </trkpt>
      <trkpt lat="46.1504" lon="4.05007">
        <ele>310</ele>
        <time>2016-04-19T10:41:31Z</time>
      </trkpt>
      <trkpt lat="46.15023" lon="4.04982">
        <ele>304</ele>
        <time>2016-04-19T10:41:54Z</time>
      </trkpt>
      <trkpt lat="46.15022" lon="4.04975">
        <ele>303</ele>
        <time>2016-04-19T10:41:59Z</time>
      </trkpt>
      <trkpt lat="46.15023" lon="4.04971">
        <ele>302</ele>
        <time>2016-04-19T10:42:07Z</time>
      </trkpt>
      <trkpt lat="46.15021" lon="4.04975">
        <ele>302</ele>
        <time>2016-04-19T10:42:38Z</time>
      </trkpt>
      <trkpt lat="46.15016" lon="4.04972">
        <ele>302</ele>
        <time>2016-04-19T10:42:43Z</time>
      </trkpt>
      <trkpt lat="46.15011" lon="4.04968">
        <ele>301</ele>
        <time>2016-04-19T10:42:48Z</time>
      </trkpt>
      <trkpt lat="46.15008" lon="4.04963">
        <ele>301</ele>
        <time>2016-04-19T10:42:53Z</time>
      </trkpt>
      <trkpt lat="46.15005" lon="4.04958">
        <ele>300</ele>
        <time>2016-04-19T10:42:57Z</time>
      </trkpt>
      <trkpt lat="46.14997" lon="4.04939">
        <ele>300</ele>
        <time>2016-04-19T10:43:10Z</time>
      </trkpt>
      <trkpt lat="46.14989" lon="4.04913">
        <ele>298</ele>
        <time>2016-04-19T10:43:29Z</time>
      </trkpt>
      <trkpt lat="46.14989" lon="4.04906">
        <ele>298</ele>
        <time>2016-04-19T10:43:34Z</time>
      </trkpt>
      <trkpt lat="46.14988" lon="4.04854">
        <ele>296</ele>
        <time>2016-04-19T10:44:06Z</time>
      </trkpt>
      <trkpt lat="46.1499" lon="4.04833">
        <ele>296</ele>
        <time>2016-04-19T10:44:19Z</time>
      </trkpt>
      <trkpt lat="46.14992" lon="4.0481">
        <ele>295</ele>
        <time>2016-04-19T10:44:31Z</time>
      </trkpt>
      <trkpt lat="46.14993" lon="4.04803">
        <ele>295</ele>
        <time>2016-04-19T10:44:41Z</time>
      </trkpt>
      <trkpt lat="46.14995" lon="4.04796">
        <ele>296</ele>
        <time>2016-04-19T10:44:46Z</time>
      </trkpt>
      <trkpt lat="46.14996" lon="4.04789">
        <ele>296</ele>
        <time>2016-04-19T10:44:51Z</time>
      </trkpt>
      <trkpt lat="46.14999" lon="4.04773">
        <ele>296</ele>
        <time>2016-04-19T10:45:01Z</time>
      </trkpt>
      <trkpt lat="46.15" lon="4.04732">
        <ele>291</ele>
        <time>2016-04-19T10:45:35Z</time>
      </trkpt>
      <trkpt lat="46.14996" lon="4.04721">
        <ele>291</ele>
        <time>2016-04-19T10:45:48Z</time>
      </trkpt>
      <trkpt lat="46.14992" lon="4.04709">
        <ele>290</ele>
        <time>2016-04-19T10:46:12Z</time>
      </trkpt>
      <trkpt lat="46.14985" lon="4.04698">
        <ele>292</ele>
        <time>2016-04-19T10:46:20Z</time>
      </trkpt>
      <trkpt lat="46.14982" lon="4.04691">
        <ele>292</ele>
        <time>2016-04-19T10:46:25Z</time>
      </trkpt>
      <trkpt lat="46.14977" lon="4.04679">
        <ele>290</ele>
        <time>2016-04-19T10:46:34Z</time>
      </trkpt>
      <trkpt lat="46.14972" lon="4.04659">
        <ele>286</ele>
        <time>2016-04-19T10:46:46Z</time>
      </trkpt>
      <trkpt lat="46.14969" lon="4.04652">
        <ele>286</ele>
        <time>2016-04-19T10:46:50Z</time>
      </trkpt>
      <trkpt lat="46.14966" lon="4.04645">
        <ele>286</ele>
        <time>2016-04-19T10:46:54Z</time>
      </trkpt>
      <trkpt lat="46.1496" lon="4.04633">
        <ele>285</ele>
        <time>2016-04-19T10:47:02Z</time>
      </trkpt>
      <trkpt lat="46.14952" lon="4.04615">
        <ele>285</ele>
        <time>2016-04-19T10:47:14Z</time>
      </trkpt>
      <trkpt lat="46.1493" lon="4.04575">
        <ele>283</ele>
        <time>2016-04-19T10:47:44Z</time>
      </trkpt>
      <trkpt lat="46.14915" lon="4.04538">
        <ele>282</ele>
        <time>2016-04-19T10:48:08Z</time>
      </trkpt>
      <trkpt lat="46.14913" lon="4.04531">
        <ele>281</ele>
        <time>2016-04-19T10:48:12Z</time>
      </trkpt>
      <trkpt lat="46.14911" lon="4.04525">
        <ele>281</ele>
        <time>2016-04-19T10:48:16Z</time>
      </trkpt>
      <trkpt lat="46.1491" lon="4.04518">
        <ele>280</ele>
        <time>2016-04-19T10:48:21Z</time>
      </trkpt>
      <trkpt lat="46.14914" lon="4.04512">
        <ele>279</ele>
        <time>2016-04-19T10:48:25Z</time>
      </trkpt>
      <trkpt lat="46.1495" lon="4.04483">
        <ele>276</ele>
        <time>2016-04-19T10:48:57Z</time>
      </trkpt>
      <trkpt lat="46.14977" lon="4.04463">
        <ele>275</ele>
        <time>2016-04-19T10:49:28Z</time>
      </trkpt>
      <trkpt lat="46.14982" lon="4.04459">
        <ele>274</ele>
        <time>2016-04-19T10:49:32Z</time>
      </trkpt>
      <trkpt lat="46.15018" lon="4.04435">
        <ele>271</ele>
        <time>2016-04-19T10:50:05Z</time>
      </trkpt>
      <trkpt lat="46.1502" lon="4.04434">
        <ele>271</ele>
        <time>2016-04-19T10:50:10Z</time>
      </trkpt>
      <trkpt lat="46.15023" lon="4.04435">
        <ele>271</ele>
        <time>2016-04-19T10:50:32Z</time>
      </trkpt>
      <trkpt lat="46.15054" lon="4.04438">
        <ele>270</ele>
        <time>2016-04-19T10:51:05Z</time>
      </trkpt>
      <trkpt lat="46.15059" lon="4.0444">
        <ele>269</ele>
        <time>2016-04-19T10:51:12Z</time>
      </trkpt>
      <trkpt lat="46.15064" lon="4.04441">
        <ele>269</ele>
        <time>2016-04-19T10:51:15Z</time>
      </trkpt>
      <trkpt lat="46.15072" lon="4.04448">
        <ele>269</ele>
        <time>2016-04-19T10:51:34Z</time>
      </trkpt>
      <trkpt lat="46.15093" lon="4.04453">
        <ele>272</ele>
        <time>2016-04-19T10:51:51Z</time>
      </trkpt>
      <trkpt lat="46.15097" lon="4.04451">
        <ele>272</ele>
        <time>2016-04-19T10:51:55Z</time>
      </trkpt>
      <trkpt lat="46.15103" lon="4.0445">
        <ele>270</ele>
        <time>2016-04-19T10:51:59Z</time>
      </trkpt>
      <trkpt lat="46.15108" lon="4.04447">
        <ele>270</ele>
        <time>2016-04-19T10:52:04Z</time>
      </trkpt>
      <trkpt lat="46.15113" lon="4.04447">
        <ele>270</ele>
        <time>2016-04-19T10:52:09Z</time>
      </trkpt>
      <trkpt lat="46.15115" lon="4.04455">
        <ele>269</ele>
        <time>2016-04-19T10:52:20Z</time>
      </trkpt>
      <trkpt lat="46.15119" lon="4.04456">
        <ele>269</ele>
        <time>2016-04-19T10:52:29Z</time>
      </trkpt>
      <trkpt lat="46.15119" lon="4.04449">
        <ele>269</ele>
        <time>2016-04-19T10:52:40Z</time>
      </trkpt>
      <trkpt lat="46.15118" lon="4.04435">
        <ele>269</ele>
        <time>2016-04-19T10:52:48Z</time>
      </trkpt>
      <trkpt lat="46.15122" lon="4.0443">
        <ele>269</ele>
        <time>2016-04-19T10:52:53Z</time>
      </trkpt>
      <trkpt lat="46.15129" lon="4.04418">
        <ele>271</ele>
        <time>2016-04-19T10:53:02Z</time>
      </trkpt>
      <trkpt lat="46.15133" lon="4.04413">
        <ele>271</ele>
        <time>2016-04-19T10:53:07Z</time>
      </trkpt>
      <trkpt lat="46.15128" lon="4.04411">
        <ele>270</ele>
        <time>2016-04-19T10:53:19Z</time>
      </trkpt>
      <trkpt lat="46.15123" lon="4.0441">
        <ele>269</ele>
        <time>2016-04-19T10:53:26Z</time>
      </trkpt>
      <trkpt lat="46.15123" lon="4.04406">
        <ele>266</ele>
        <time>2016-04-19T10:54:05Z</time>
      </trkpt>
      <trkpt lat="46.1512" lon="4.04409">
        <ele>267</ele>
        <time>2016-04-19T11:05:35Z</time>
      </trkpt>
      <trkpt lat="46.15123" lon="4.04406">
        <ele>268</ele>
        <time>2016-04-19T11:16:06Z</time>
      </trkpt>
      <trkpt lat="46.15128" lon="4.04407">
        <ele>268</ele>
        <time>2016-04-19T11:16:23Z</time>
      </trkpt>
      <trkpt lat="46.15136" lon="4.04415">
        <ele>265</ele>
        <time>2016-04-19T11:16:34Z</time>
      </trkpt>
      <trkpt lat="46.15141" lon="4.04418">
        <ele>267</ele>
        <time>2016-04-19T11:16:39Z</time>
      </trkpt>
      <trkpt lat="46.15146" lon="4.04417">
        <ele>268</ele>
        <time>2016-04-19T11:16:44Z</time>
      </trkpt>
      <trkpt lat="46.1515" lon="4.04417">
        <ele>268</ele>
        <time>2016-04-19T11:16:48Z</time>
      </trkpt>
      <trkpt lat="46.15161" lon="4.04414">
        <ele>266</ele>
        <time>2016-04-19T11:16:57Z</time>
      </trkpt>
      <trkpt lat="46.15165" lon="4.04412">
        <ele>266</ele>
        <time>2016-04-19T11:17:02Z</time>
      </trkpt>
      <trkpt lat="46.15167" lon="4.04413">
        <ele>265</ele>
        <time>2016-04-19T11:17:09Z</time>
      </trkpt>
      <trkpt lat="46.15162" lon="4.04417">
        <ele>267</ele>
        <time>2016-04-19T11:17:32Z</time>
      </trkpt>
      <trkpt lat="46.15156" lon="4.04418">
        <ele>266</ele>
        <time>2016-04-19T11:17:56Z</time>
      </trkpt>
      <trkpt lat="46.15146" lon="4.04419">
        <ele>269</ele>
        <time>2016-04-19T11:18:06Z</time>
      </trkpt>
      <trkpt lat="46.15141" lon="4.0442">
        <ele>269</ele>
        <time>2016-04-19T11:18:10Z</time>
      </trkpt>
      <trkpt lat="46.15137" lon="4.04422">
        <ele>269</ele>
        <time>2016-04-19T11:18:15Z</time>
      </trkpt>
      <trkpt lat="46.15132" lon="4.04422">
        <ele>269</ele>
        <time>2016-04-19T11:18:21Z</time>
      </trkpt>
      <trkpt lat="46.15129" lon="4.04416">
        <ele>269</ele>
        <time>2016-04-19T11:18:27Z</time>
      </trkpt>
      <trkpt lat="46.15126" lon="4.0441">
        <ele>269</ele>
        <time>2016-04-19T11:18:32Z</time>
      </trkpt>
      <trkpt lat="46.15127" lon="4.04404">
        <ele>267</ele>
        <time>2016-04-19T11:18:38Z</time>
      </trkpt>
      <trkpt lat="46.15124" lon="4.04404">
        <ele>267</ele>
        <time>2016-04-19T11:18:51Z</time>
      </trkpt>
      <trkpt lat="46.15122" lon="4.04405">
        <ele>268</ele>
        <time>2016-04-19T11:19:43Z</time>
      </trkpt>
      <trkpt lat="46.15119" lon="4.04407">
        <ele>268</ele>
        <time>2016-04-19T11:20:00Z</time>
      </trkpt>
      <trkpt lat="46.15121" lon="4.04412">
        <ele>266</ele>
        <time>2016-04-19T11:20:10Z</time>
      </trkpt>
      <trkpt lat="46.15126" lon="4.04409">
        <ele>265</ele>
        <time>2016-04-19T11:20:14Z</time>
      </trkpt>
      <trkpt lat="46.15123" lon="4.0441">
        <ele>266</ele>
        <time>2016-04-19T11:21:14Z</time>
      </trkpt>
      <trkpt lat="46.15122" lon="4.04416">
        <ele>266</ele>
        <time>2016-04-19T11:21:28Z</time>
      </trkpt>
      <trkpt lat="46.15123" lon="4.04421">
        <ele>267</ele>
        <time>2016-04-19T11:23:17Z</time>
      </trkpt>
      <trkpt lat="46.15121" lon="4.04423">
        <ele>266</ele>
        <time>2016-04-19T11:23:28Z</time>
      </trkpt>
      <trkpt lat="46.15118" lon="4.04428">
        <ele>268</ele>
        <time>2016-04-19T11:23:42Z</time>
      </trkpt>
      <trkpt lat="46.15116" lon="4.04434">
        <ele>268</ele>
        <time>2016-04-19T11:23:47Z</time>
      </trkpt>
      <trkpt lat="46.15115" lon="4.04441">
        <ele>268</ele>
        <time>2016-04-19T11:23:51Z</time>
      </trkpt>
      <trkpt lat="46.15117" lon="4.04455">
        <ele>268</ele>
        <time>2016-04-19T11:24:01Z</time>
      </trkpt>
      <trkpt lat="46.1512" lon="4.04461">
        <ele>268</ele>
        <time>2016-04-19T11:24:06Z</time>
      </trkpt>
      <trkpt lat="46.15125" lon="4.04465">
        <ele>268</ele>
        <time>2016-04-19T11:24:10Z</time>
      </trkpt>
      <trkpt lat="46.15124" lon="4.0447">
        <ele>268</ele>
        <time>2016-04-19T11:24:24Z</time>
      </trkpt>
      <trkpt lat="46.15123" lon="4.04477">
        <ele>267</ele>
        <time>2016-04-19T11:24:37Z</time>
      </trkpt>
      <trkpt lat="46.15116" lon="4.04486">
        <ele>267</ele>
        <time>2016-04-19T11:24:50Z</time>
      </trkpt>
      <trkpt lat="46.15118" lon="4.04504">
        <ele>267</ele>
        <time>2016-04-19T11:25:00Z</time>
      </trkpt>
      <trkpt lat="46.15122" lon="4.045">
        <ele>267</ele>
        <time>2016-04-19T11:25:11Z</time>
      </trkpt>
      <trkpt lat="46.15137" lon="4.04524">
        <ele>268</ele>
        <time>2016-04-19T11:26:47Z</time>
      </trkpt>
      <trkpt lat="46.1512" lon="4.04502">
        <ele>267</ele>
        <time>2016-04-19T11:33:18Z</time>
      </trkpt>
      <trkpt lat="46.1512" lon="4.04494">
        <ele>267</ele>
        <time>2016-04-19T11:33:44Z</time>
      </trkpt>
      <trkpt lat="46.15124" lon="4.04487">
        <ele>267</ele>
        <time>2016-04-19T11:34:02Z</time>
      </trkpt>
      <trkpt lat="46.15122" lon="4.04471">
        <ele>268</ele>
        <time>2016-04-19T11:34:18Z</time>
      </trkpt>
      <trkpt lat="46.1512" lon="4.04467">
        <ele>268</ele>
        <time>2016-04-19T11:34:25Z</time>
      </trkpt>
      <trkpt lat="46.15119" lon="4.04464">
        <ele>268</ele>
        <time>2016-04-19T11:34:37Z</time>
      </trkpt>
      <trkpt lat="46.15117" lon="4.04458">
        <ele>269</ele>
        <time>2016-04-19T11:36:25Z</time>
      </trkpt>
      <trkpt lat="46.15113" lon="4.04454">
        <ele>270</ele>
        <time>2016-04-19T11:36:34Z</time>
      </trkpt>
      <trkpt lat="46.15108" lon="4.04453">
        <ele>272</ele>
        <time>2016-04-19T11:36:39Z</time>
      </trkpt>
      <trkpt lat="46.15103" lon="4.04453">
        <ele>272</ele>
        <time>2016-04-19T11:36:43Z</time>
      </trkpt>
      <trkpt lat="46.15093" lon="4.04453">
        <ele>269</ele>
        <time>2016-04-19T11:36:53Z</time>
      </trkpt>
      <trkpt lat="46.15083" lon="4.04453">
        <ele>269</ele>
        <time>2016-04-19T11:37:03Z</time>
      </trkpt>
      <trkpt lat="46.15066" lon="4.04453">
        <ele>277</ele>
        <time>2016-04-19T11:37:26Z</time>
      </trkpt>
      <trkpt lat="46.15068" lon="4.04456">
        <ele>279</ele>
        <time>2016-04-19T11:37:43Z</time>
      </trkpt>
      <trkpt lat="46.15064" lon="4.04449">
        <ele>273</ele>
        <time>2016-04-19T11:41:09Z</time>
      </trkpt>
      <trkpt lat="46.15055" lon="4.04445">
        <ele>273</ele>
        <time>2016-04-19T11:41:18Z</time>
      </trkpt>
      <trkpt lat="46.15046" lon="4.04442">
        <ele>275</ele>
        <time>2016-04-19T11:41:30Z</time>
      </trkpt>
      <trkpt lat="46.15" lon="4.04448">
        <ele>273</ele>
        <time>2016-04-19T11:42:01Z</time>
      </trkpt>
      <trkpt lat="46.14995" lon="4.04449">
        <ele>273</ele>
        <time>2016-04-19T11:42:06Z</time>
      </trkpt>
      <trkpt lat="46.14991" lon="4.04454">
        <ele>274</ele>
        <time>2016-04-19T11:42:15Z</time>
      </trkpt>
      <trkpt lat="46.14982" lon="4.04459">
        <ele>276</ele>
        <time>2016-04-19T11:42:26Z</time>
      </trkpt>
      <trkpt lat="46.14978" lon="4.04463">
        <ele>276</ele>
        <time>2016-04-19T11:42:31Z</time>
      </trkpt>
      <trkpt lat="46.14972" lon="4.04465">
        <ele>276</ele>
        <time>2016-04-19T11:42:36Z</time>
      </trkpt>
      <trkpt lat="46.1497" lon="4.04471">
        <ele>276</ele>
        <time>2016-04-19T11:42:42Z</time>
      </trkpt>
      <trkpt lat="46.14971" lon="4.04476">
        <ele>276</ele>
        <time>2016-04-19T11:42:59Z</time>
      </trkpt>
      <trkpt lat="46.14968" lon="4.04482">
        <ele>276</ele>
        <time>2016-04-19T11:43:04Z</time>
      </trkpt>
      <trkpt lat="46.1497" lon="4.04489">
        <ele>277</ele>
        <time>2016-04-19T11:43:08Z</time>
      </trkpt>
      <trkpt lat="46.14986" lon="4.04513">
        <ele>284</ele>
        <time>2016-04-19T11:43:45Z</time>
      </trkpt>
      <trkpt lat="46.14984" lon="4.04518">
        <ele>285</ele>
        <time>2016-04-19T11:43:55Z</time>
      </trkpt>
      <trkpt lat="46.14986" lon="4.04514">
        <ele>284</ele>
        <time>2016-04-19T11:45:15Z</time>
      </trkpt>
      <trkpt lat="46.14986" lon="4.04507">
        <ele>284</ele>
        <time>2016-04-19T11:45:20Z</time>
      </trkpt>
      <trkpt lat="46.14972" lon="4.04477">
        <ele>280</ele>
        <time>2016-04-19T11:45:42Z</time>
      </trkpt>
      <trkpt lat="46.14973" lon="4.0447">
        <ele>280</ele>
        <time>2016-04-19T11:45:47Z</time>
      </trkpt>
      <trkpt lat="46.14976" lon="4.04467">
        <ele>280</ele>
        <time>2016-04-19T11:45:55Z</time>
      </trkpt>
      <trkpt lat="46.14984" lon="4.0446">
        <ele>279</ele>
        <time>2016-04-19T11:46:05Z</time>
      </trkpt>
      <trkpt lat="46.14987" lon="4.04455">
        <ele>278</ele>
        <time>2016-04-19T11:46:09Z</time>
      </trkpt>
      <trkpt lat="46.15001" lon="4.04447">
        <ele>278</ele>
        <time>2016-04-19T11:46:21Z</time>
      </trkpt>
      <trkpt lat="46.15011" lon="4.04444">
        <ele>278</ele>
        <time>2016-04-19T11:46:30Z</time>
      </trkpt>
      <trkpt lat="46.15036" lon="4.04439">
        <ele>274</ele>
        <time>2016-04-19T11:46:54Z</time>
      </trkpt>
      <trkpt lat="46.15041" lon="4.04435">
        <ele>274</ele>
        <time>2016-04-19T11:46:59Z</time>
      </trkpt>
      <trkpt lat="46.15046" lon="4.04432">
        <ele>274</ele>
        <time>2016-04-19T11:47:04Z</time>
      </trkpt>
      <trkpt lat="46.15049" lon="4.04433">
        <ele>274</ele>
        <time>2016-04-19T11:47:11Z</time>
      </trkpt>
      <trkpt lat="46.15051" lon="4.04434">
        <ele>276</ele>
        <time>2016-04-19T11:47:22Z</time>
      </trkpt>
      <trkpt lat="46.15055" lon="4.04437">
        <ele>275</ele>
        <time>2016-04-19T11:47:34Z</time>
      </trkpt>
      <trkpt lat="46.15071" lon="4.04454">
        <ele>278</ele>
        <time>2016-04-19T11:47:48Z</time>
      </trkpt>
      <trkpt lat="46.15067" lon="4.04458">
        <ele>277</ele>
        <time>2016-04-19T11:47:54Z</time>
      </trkpt>
      <trkpt lat="46.15068" lon="4.0447">
        <ele>277</ele>
        <time>2016-04-19T11:48:13Z</time>
      </trkpt>
      <trkpt lat="46.15072" lon="4.04474">
        <ele>277</ele>
        <time>2016-04-19T11:48:33Z</time>
      </trkpt>
      <trkpt lat="46.15069" lon="4.04495">
        <ele>277</ele>
        <time>2016-04-19T11:48:50Z</time>
      </trkpt>
      <trkpt lat="46.15075" lon="4.04487">
        <ele>276</ele>
        <time>2016-04-19T11:49:56Z</time>
      </trkpt>
      <trkpt lat="46.15073" lon="4.04468">
        <ele>277</ele>
        <time>2016-04-19T11:50:10Z</time>
      </trkpt>
      <trkpt lat="46.15075" lon="4.0446">
        <ele>277</ele>
        <time>2016-04-19T11:50:18Z</time>
      </trkpt>
      <trkpt lat="46.15071" lon="4.04455">
        <ele>277</ele>
        <time>2016-04-19T11:50:22Z</time>
      </trkpt>
      <trkpt lat="46.15058" lon="4.04444">
        <ele>275</ele>
        <time>2016-04-19T11:50:32Z</time>
      </trkpt>
      <trkpt lat="46.15054" lon="4.04439">
        <ele>276</ele>
        <time>2016-04-19T11:50:37Z</time>
      </trkpt>
      <trkpt lat="46.15052" lon="4.04424">
        <ele>277</ele>
        <time>2016-04-19T11:50:45Z</time>
      </trkpt>
      <trkpt lat="46.15048" lon="4.04404">
        <ele>274</ele>
        <time>2016-04-19T11:51:03Z</time>
      </trkpt>
      <trkpt lat="46.15049" lon="4.044">
        <ele>274</ele>
        <time>2016-04-19T11:51:46Z</time>
      </trkpt>
      <trkpt lat="46.15047" lon="4.04394">
        <ele>272</ele>
        <time>2016-04-19T11:51:53Z</time>
      </trkpt>
      <trkpt lat="46.15029" lon="4.0435">
        <ele>269</ele>
        <time>2016-04-19T11:52:26Z</time>
      </trkpt>
      <trkpt lat="46.15019" lon="4.04327">
        <ele>267</ele>
        <time>2016-04-19T11:52:43Z</time>
      </trkpt>
      <trkpt lat="46.15012" lon="4.04306">
        <ele>268</ele>
        <time>2016-04-19T11:52:59Z</time>
      </trkpt>
      <trkpt lat="46.15005" lon="4.04297">
        <ele>269</ele>
        <time>2016-04-19T11:53:08Z</time>
      </trkpt>
      <trkpt lat="46.15" lon="4.04295">
        <ele>269</ele>
        <time>2016-04-19T11:53:14Z</time>
      </trkpt>
      <trkpt lat="46.14995" lon="4.04298">
        <ele>269</ele>
        <time>2016-04-19T11:53:19Z</time>
      </trkpt>
      <trkpt lat="46.1499" lon="4.043">
        <ele>273</ele>
        <time>2016-04-19T11:53:24Z</time>
      </trkpt>
      <trkpt lat="46.14985" lon="4.04302">
        <ele>274</ele>
        <time>2016-04-19T11:53:28Z</time>
      </trkpt>
      <trkpt lat="46.14973" lon="4.0431">
        <ele>271</ele>
        <time>2016-04-19T11:53:48Z</time>
      </trkpt>
      <trkpt lat="46.14964" lon="4.04316">
        <ele>272</ele>
        <time>2016-04-19T11:53:56Z</time>
      </trkpt>
      <trkpt lat="46.1496" lon="4.04319">
        <ele>272</ele>
        <time>2016-04-19T11:54:00Z</time>
      </trkpt>
      <trkpt lat="46.14923" lon="4.04342">
        <ele>273</ele>
        <time>2016-04-19T11:54:34Z</time>
      </trkpt>
      <trkpt lat="46.14919" lon="4.04346">
        <ele>273</ele>
        <time>2016-04-19T11:54:42Z</time>
      </trkpt>
      <trkpt lat="46.14916" lon="4.04346">
        <ele>273</ele>
        <time>2016-04-19T11:54:53Z</time>
      </trkpt>
      <trkpt lat="46.14901" lon="4.04343">
        <ele>273</ele>
        <time>2016-04-19T11:55:23Z</time>
      </trkpt>
      <trkpt lat="46.14892" lon="4.04335">
        <ele>273</ele>
        <time>2016-04-19T11:55:33Z</time>
      </trkpt>
      <trkpt lat="46.14889" lon="4.04329">
        <ele>273</ele>
        <time>2016-04-19T11:55:38Z</time>
      </trkpt>
      <trkpt lat="46.14867" lon="4.04296">
        <ele>274</ele>
        <time>2016-04-19T11:56:09Z</time>
      </trkpt>
      <trkpt lat="46.14863" lon="4.04292">
        <ele>274</ele>
        <time>2016-04-19T11:56:14Z</time>
      </trkpt>
      <trkpt lat="46.14857" lon="4.04291">
        <ele>274</ele>
        <time>2016-04-19T11:56:19Z</time>
      </trkpt>
      <trkpt lat="46.14853" lon="4.04287">
        <ele>274</ele>
        <time>2016-04-19T11:56:24Z</time>
      </trkpt>
      <trkpt lat="46.14844" lon="4.04271">
        <ele>274</ele>
        <time>2016-04-19T11:56:37Z</time>
      </trkpt>
      <trkpt lat="46.14841" lon="4.04268">
        <ele>275</ele>
        <time>2016-04-19T11:56:45Z</time>
      </trkpt>
      <trkpt lat="46.14836" lon="4.04271">
        <ele>275</ele>
        <time>2016-04-19T11:57:00Z</time>
      </trkpt>
      <trkpt lat="46.1483" lon="4.04283">
        <ele>276</ele>
        <time>2016-04-19T11:57:08Z</time>
      </trkpt>
      <trkpt lat="46.14827" lon="4.04319">
        <ele>277</ele>
        <time>2016-04-19T11:57:32Z</time>
      </trkpt>
      <trkpt lat="46.14829" lon="4.04332">
        <ele>278</ele>
        <time>2016-04-19T11:57:41Z</time>
      </trkpt>
      <trkpt lat="46.14817" lon="4.04372">
        <ele>280</ele>
        <time>2016-04-19T11:58:07Z</time>
      </trkpt>
      <trkpt lat="46.14814" lon="4.04377">
        <ele>280</ele>
        <time>2016-04-19T11:58:11Z</time>
      </trkpt>
      <trkpt lat="46.14798" lon="4.04393">
        <ele>281</ele>
        <time>2016-04-19T11:58:29Z</time>
      </trkpt>
      <trkpt lat="46.14793" lon="4.04396">
        <ele>282</ele>
        <time>2016-04-19T11:58:34Z</time>
      </trkpt>
      <trkpt lat="46.14784" lon="4.04402">
        <ele>282</ele>
        <time>2016-04-19T11:58:44Z</time>
      </trkpt>
      <trkpt lat="46.14749" lon="4.04428">
        <ele>285</ele>
        <time>2016-04-19T11:59:16Z</time>
      </trkpt>
      <trkpt lat="46.14718" lon="4.04445">
        <ele>287</ele>
        <time>2016-04-19T11:59:44Z</time>
      </trkpt>
      <trkpt lat="46.14714" lon="4.04443">
        <ele>287</ele>
        <time>2016-04-19T11:59:51Z</time>
      </trkpt>
      <trkpt lat="46.14676" lon="4.0445">
        <ele>290</ele>
        <time>2016-04-19T12:00:24Z</time>
      </trkpt>
      <trkpt lat="46.14639" lon="4.04445">
        <ele>292</ele>
        <time>2016-04-19T12:00:56Z</time>
      </trkpt>
      <trkpt lat="46.14599" lon="4.0443">
        <ele>295</ele>
        <time>2016-04-19T12:01:29Z</time>
      </trkpt>
      <trkpt lat="46.14564" lon="4.04413">
        <ele>299</ele>
        <time>2016-04-19T12:02:00Z</time>
      </trkpt>
      <trkpt lat="46.14537" lon="4.04396">
        <ele>302</ele>
        <time>2016-04-19T12:02:51Z</time>
      </trkpt>
      <trkpt lat="46.14506" lon="4.04372">
        <ele>304</ele>
        <time>2016-04-19T12:03:22Z</time>
      </trkpt>
      <trkpt lat="46.14476" lon="4.04345">
        <ele>305</ele>
        <time>2016-04-19T12:03:55Z</time>
      </trkpt>
      <trkpt lat="46.14471" lon="4.0434">
        <ele>305</ele>
        <time>2016-04-19T12:04:00Z</time>
      </trkpt>
      <trkpt lat="46.14464" lon="4.04332">
        <ele>305</ele>
        <time>2016-04-19T12:04:11Z</time>
      </trkpt>
      <trkpt lat="46.14434" lon="4.04303">
        <ele>306</ele>
        <time>2016-04-19T12:04:43Z</time>
      </trkpt>
      <trkpt lat="46.14417" lon="4.04279">
        <ele>307</ele>
        <time>2016-04-19T12:05:15Z</time>
      </trkpt>
      <trkpt lat="46.14406" lon="4.04223">
        <ele>309</ele>
        <time>2016-04-19T12:05:48Z</time>
      </trkpt>
      <trkpt lat="46.1439" lon="4.0417">
        <ele>311</ele>
        <time>2016-04-19T12:06:21Z</time>
      </trkpt>
      <trkpt lat="46.14379" lon="4.04117">
        <ele>314</ele>
        <time>2016-04-19T12:06:56Z</time>
      </trkpt>
      <trkpt lat="46.14377" lon="4.0411">
        <ele>316</ele>
        <time>2016-04-19T12:08:19Z</time>
      </trkpt>
      <trkpt lat="46.14371" lon="4.04083">
        <ele>318</ele>
        <time>2016-04-19T12:08:36Z</time>
      </trkpt>
      <trkpt lat="46.14344" lon="4.04052">
        <ele>318</ele>
        <time>2016-04-19T12:09:04Z</time>
      </trkpt>
      <trkpt lat="46.1433" lon="4.04046">
        <ele>318</ele>
        <time>2016-04-19T12:09:17Z</time>
      </trkpt>
      <trkpt lat="46.14325" lon="4.04043">
        <ele>318</ele>
        <time>2016-04-19T12:09:22Z</time>
      </trkpt>
      <trkpt lat="46.14284" lon="4.04035">
        <ele>319</ele>
        <time>2016-04-19T12:09:57Z</time>
      </trkpt>
      <trkpt lat="46.14242" lon="4.04031">
        <ele>320</ele>
        <time>2016-04-19T12:10:30Z</time>
      </trkpt>
      <trkpt lat="46.14206" lon="4.04028">
        <ele>321</ele>
        <time>2016-04-19T12:11:03Z</time>
      </trkpt>
      <trkpt lat="46.14168" lon="4.04021">
        <ele>322</ele>
        <time>2016-04-19T12:11:36Z</time>
      </trkpt>
      <trkpt lat="46.14127" lon="4.04015">
        <ele>322</ele>
        <time>2016-04-19T12:12:09Z</time>
      </trkpt>
      <trkpt lat="46.14118" lon="4.04013">
        <ele>322</ele>
        <time>2016-04-19T12:12:17Z</time>
      </trkpt>
      <trkpt lat="46.14113" lon="4.04013">
        <ele>323</ele>
        <time>2016-04-19T12:12:22Z</time>
      </trkpt>
      <trkpt lat="46.14074" lon="4.04007">
        <ele>323</ele>
        <time>2016-04-19T12:12:55Z</time>
      </trkpt>
      <trkpt lat="46.14039" lon="4.03995">
        <ele>324</ele>
        <time>2016-04-19T12:13:27Z</time>
      </trkpt>
      <trkpt lat="46.14026" lon="4.03986">
        <ele>324</ele>
        <time>2016-04-19T12:13:39Z</time>
      </trkpt>
      <trkpt lat="46.14004" lon="4.03971">
        <ele>325</ele>
        <time>2016-04-19T12:13:59Z</time>
      </trkpt>
      <trkpt lat="46.1397" lon="4.03945">
        <ele>321</ele>
        <time>2016-04-19T12:14:31Z</time>
      </trkpt>
      <trkpt lat="46.13935" lon="4.03918">
        <ele>320</ele>
        <time>2016-04-19T12:15:05Z</time>
      </trkpt>
      <trkpt lat="46.13901" lon="4.0389">
        <ele>319</ele>
        <time>2016-04-19T12:15:38Z</time>
      </trkpt>
      <trkpt lat="46.13868" lon="4.0386">
        <ele>320</ele>
        <time>2016-04-19T12:16:11Z</time>
      </trkpt>
      <trkpt lat="46.13837" lon="4.03821">
        <ele>321</ele>
        <time>2016-04-19T12:16:42Z</time>
      </trkpt>
      <trkpt lat="46.1381" lon="4.03779">
        <ele>325</ele>
        <time>2016-04-19T12:17:15Z</time>
      </trkpt>
      <trkpt lat="46.13792" lon="4.03732">
        <ele>329</ele>
        <time>2016-04-19T12:17:48Z</time>
      </trkpt>
      <trkpt lat="46.13779" lon="4.03701">
        <ele>331</ele>
        <time>2016-04-19T12:18:20Z</time>
      </trkpt>
      <trkpt lat="46.13753" lon="4.03664">
        <ele>333</ele>
        <time>2016-04-19T12:18:52Z</time>
      </trkpt>
      <trkpt lat="46.13728" lon="4.03627">
        <ele>336</ele>
        <time>2016-04-19T12:19:22Z</time>
      </trkpt>
      <trkpt lat="46.13703" lon="4.03591">
        <ele>338</ele>
        <time>2016-04-19T12:19:53Z</time>
      </trkpt>
      <trkpt lat="46.13674" lon="4.03555">
        <ele>340</ele>
        <time>2016-04-19T12:20:26Z</time>
      </trkpt>
      <trkpt lat="46.13643" lon="4.0352">
        <ele>341</ele>
        <time>2016-04-19T12:20:59Z</time>
      </trkpt>
      <trkpt lat="46.13612" lon="4.03495">
        <ele>342</ele>
        <time>2016-04-19T12:21:30Z</time>
      </trkpt>
      <trkpt lat="46.13582" lon="4.03469">
        <ele>342</ele>
        <time>2016-04-19T12:22:00Z</time>
      </trkpt>
      <trkpt lat="46.13555" lon="4.0343">
        <ele>342</ele>
        <time>2016-04-19T12:22:33Z</time>
      </trkpt>
      <trkpt lat="46.13534" lon="4.03392">
        <ele>341</ele>
        <time>2016-04-19T12:23:05Z</time>
      </trkpt>
      <trkpt lat="46.13529" lon="4.03379">
        <ele>340</ele>
        <time>2016-04-19T12:23:14Z</time>
      </trkpt>
      <trkpt lat="46.13508" lon="4.03332">
        <ele>341</ele>
        <time>2016-04-19T12:23:47Z</time>
      </trkpt>
      <trkpt lat="46.13482" lon="4.03289">
        <ele>343</ele>
        <time>2016-04-19T12:24:20Z</time>
      </trkpt>
      <trkpt lat="46.13457" lon="4.03246">
        <ele>346</ele>
        <time>2016-04-19T12:24:55Z</time>
      </trkpt>
      <trkpt lat="46.13452" lon="4.0324">
        <ele>346</ele>
        <time>2016-04-19T12:25:11Z</time>
      </trkpt>
      <trkpt lat="46.13433" lon="4.0319">
        <ele>348</ele>
        <time>2016-04-19T12:25:44Z</time>
      </trkpt>
      <trkpt lat="46.13409" lon="4.03148">
        <ele>350</ele>
        <time>2016-04-19T12:26:17Z</time>
      </trkpt>
      <trkpt lat="46.13385" lon="4.03111">
        <ele>351</ele>
        <time>2016-04-19T12:26:47Z</time>
      </trkpt>
      <trkpt lat="46.13362" lon="4.03071">
        <ele>351</ele>
        <time>2016-04-19T12:27:18Z</time>
      </trkpt>
      <trkpt lat="46.13335" lon="4.03039">
        <ele>350</ele>
        <time>2016-04-19T12:27:50Z</time>
      </trkpt>
      <trkpt lat="46.13303" lon="4.03013">
        <ele>349</ele>
        <time>2016-04-19T12:28:20Z</time>
      </trkpt>
      <trkpt lat="46.13271" lon="4.02979">
        <ele>346</ele>
        <time>2016-04-19T12:28:53Z</time>
      </trkpt>
      <trkpt lat="46.13243" lon="4.02951">
        <ele>344</ele>
        <time>2016-04-19T12:29:23Z</time>
      </trkpt>
      <trkpt lat="46.1321" lon="4.02922">
        <ele>342</ele>
        <time>2016-04-19T12:29:57Z</time>
      </trkpt>
      <trkpt lat="46.13178" lon="4.02895">
        <ele>341</ele>
        <time>2016-04-19T12:30:30Z</time>
      </trkpt>
      <trkpt lat="46.13146" lon="4.02873">
        <ele>339</ele>
        <time>2016-04-19T12:31:01Z</time>
      </trkpt>
      <trkpt lat="46.13113" lon="4.02841">
        <ele>337</ele>
        <time>2016-04-19T12:31:36Z</time>
      </trkpt>
      <trkpt lat="46.13083" lon="4.02806">
        <ele>337</ele>
        <time>2016-04-19T12:32:08Z</time>
      </trkpt>
      <trkpt lat="46.13055" lon="4.02776">
        <ele>337</ele>
        <time>2016-04-19T12:32:38Z</time>
      </trkpt>
      <trkpt lat="46.13026" lon="4.0274">
        <ele>337</ele>
        <time>2016-04-19T12:33:10Z</time>
      </trkpt>
      <trkpt lat="46.13" lon="4.02704">
        <ele>337</ele>
        <time>2016-04-19T12:33:41Z</time>
      </trkpt>
      <trkpt lat="46.12975" lon="4.0267">
        <ele>338</ele>
        <time>2016-04-19T12:34:11Z</time>
      </trkpt>
      <trkpt lat="46.12948" lon="4.02633">
        <ele>338</ele>
        <time>2016-04-19T12:34:44Z</time>
      </trkpt>
      <trkpt lat="46.12919" lon="4.02598">
        <ele>339</ele>
        <time>2016-04-19T12:35:17Z</time>
      </trkpt>
      <trkpt lat="46.12891" lon="4.02565">
        <ele>338</ele>
        <time>2016-04-19T12:35:47Z</time>
      </trkpt>
      <trkpt lat="46.12866" lon="4.02533">
        <ele>338</ele>
        <time>2016-04-19T12:36:18Z</time>
      </trkpt>
      <trkpt lat="46.12839" lon="4.02498">
        <ele>340</ele>
        <time>2016-04-19T12:36:50Z</time>
      </trkpt>
      <trkpt lat="46.12815" lon="4.02462">
        <ele>342</ele>
        <time>2016-04-19T12:37:21Z</time>
      </trkpt>
      <trkpt lat="46.12789" lon="4.02429">
        <ele>344</ele>
        <time>2016-04-19T12:37:52Z</time>
      </trkpt>
      <trkpt lat="46.12763" lon="4.02402">
        <ele>347</ele>
        <time>2016-04-19T12:38:22Z</time>
      </trkpt>
      <trkpt lat="46.12736" lon="4.02368">
        <ele>349</ele>
        <time>2016-04-19T12:38:55Z</time>
      </trkpt>
      <trkpt lat="46.12706" lon="4.02332">
        <ele>350</ele>
        <time>2016-04-19T12:39:29Z</time>
      </trkpt>
      <trkpt lat="46.12679" lon="4.02298">
        <ele>349</ele>
        <time>2016-04-19T12:40:01Z</time>
      </trkpt>
      <trkpt lat="46.12665" lon="4.0229">
        <ele>349</ele>
        <time>2016-04-19T12:40:15Z</time>
      </trkpt>
      <trkpt lat="46.12658" lon="4.02284">
        <ele>350</ele>
        <time>2016-04-19T12:40:31Z</time>
      </trkpt>
      <trkpt lat="46.12657" lon="4.02288">
        <ele>350</ele>
        <time>2016-04-19T12:44:00Z</time>
      </trkpt>
      <trkpt lat="46.12653" lon="4.02294">
        <ele>350</ele>
        <time>2016-04-19T12:44:19Z</time>
      </trkpt>
      <trkpt lat="46.1265" lon="4.02288">
        <ele>350</ele>
        <time>2016-04-19T12:44:26Z</time>
      </trkpt>
      <trkpt lat="46.12646" lon="4.02285">
        <ele>350</ele>
        <time>2016-04-19T12:44:32Z</time>
      </trkpt>
      <trkpt lat="46.12645" lon="4.02281">
        <ele>346</ele>
        <time>2016-04-19T12:47:56Z</time>
      </trkpt>
      <trkpt lat="46.1264" lon="4.02275">
        <ele>346</ele>
        <time>2016-04-19T12:48:39Z</time>
      </trkpt>
      <trkpt lat="46.12617" lon="4.02247">
        <ele>348</ele>
        <time>2016-04-19T12:49:10Z</time>
      </trkpt>
      <trkpt lat="46.12593" lon="4.02209">
        <ele>348</ele>
        <time>2016-04-19T12:49:44Z</time>
      </trkpt>
      <trkpt lat="46.12572" lon="4.02186">
        <ele>348</ele>
        <time>2016-04-19T12:50:04Z</time>
      </trkpt>
      <trkpt lat="46.12568" lon="4.02181">
        <ele>348</ele>
        <time>2016-04-19T12:50:08Z</time>
      </trkpt>
      <trkpt lat="46.12541" lon="4.02148">
        <ele>349</ele>
        <time>2016-04-19T12:50:39Z</time>
      </trkpt>
      <trkpt lat="46.12516" lon="4.02113">
        <ele>348</ele>
        <time>2016-04-19T12:51:10Z</time>
      </trkpt>
      <trkpt lat="46.12494" lon="4.02075">
        <ele>346</ele>
        <time>2016-04-19T12:51:44Z</time>
      </trkpt>
      <trkpt lat="46.12475" lon="4.0204">
        <ele>344</ele>
        <time>2016-04-19T12:52:27Z</time>
      </trkpt>
      <trkpt lat="46.12449" lon="4.02005">
        <ele>342</ele>
        <time>2016-04-19T12:53:01Z</time>
      </trkpt>
      <trkpt lat="46.12445" lon="4.02">
        <ele>342</ele>
        <time>2016-04-19T12:53:06Z</time>
      </trkpt>
      <trkpt lat="46.12441" lon="4.01995">
        <ele>342</ele>
        <time>2016-04-19T12:53:14Z</time>
      </trkpt>
      <trkpt lat="46.1243" lon="4.01983">
        <ele>341</ele>
        <time>2016-04-19T12:53:28Z</time>
      </trkpt>
      <trkpt lat="46.12426" lon="4.01979">
        <ele>341</ele>
        <time>2016-04-19T12:53:33Z</time>
      </trkpt>
      <trkpt lat="46.12418" lon="4.01969">
        <ele>340</ele>
        <time>2016-04-19T12:53:41Z</time>
      </trkpt>
      <trkpt lat="46.12414" lon="4.01965">
        <ele>340</ele>
        <time>2016-04-19T12:53:46Z</time>
      </trkpt>
      <trkpt lat="46.12391" lon="4.01938">
        <ele>338</ele>
        <time>2016-04-19T12:54:16Z</time>
      </trkpt>
      <trkpt lat="46.12384" lon="4.01928">
        <ele>337</ele>
        <time>2016-04-19T12:54:25Z</time>
      </trkpt>
      <trkpt lat="46.12359" lon="4.01893">
        <ele>336</ele>
        <time>2016-04-19T12:54:58Z</time>
      </trkpt>
      <trkpt lat="46.12339" lon="4.01859">
        <ele>334</ele>
        <time>2016-04-19T12:55:28Z</time>
      </trkpt>
      <trkpt lat="46.12319" lon="4.01829">
        <ele>333</ele>
        <time>2016-04-19T12:55:59Z</time>
      </trkpt>
      <trkpt lat="46.1231" lon="4.01812">
        <ele>333</ele>
        <time>2016-04-19T12:56:31Z</time>
      </trkpt>
      <trkpt lat="46.12302" lon="4.01801">
        <ele>333</ele>
        <time>2016-04-19T12:56:51Z</time>
      </trkpt>
      <trkpt lat="46.123" lon="4.01795">
        <ele>333</ele>
        <time>2016-04-19T12:56:57Z</time>
      </trkpt>
      <trkpt lat="46.12279" lon="4.01765">
        <ele>334</ele>
        <time>2016-04-19T12:57:28Z</time>
      </trkpt>
      <trkpt lat="46.12264" lon="4.01747">
        <ele>334</ele>
        <time>2016-04-19T12:57:48Z</time>
      </trkpt>
      <trkpt lat="46.12252" lon="4.0171">
        <ele>335</ele>
        <time>2016-04-19T12:58:18Z</time>
      </trkpt>
      <trkpt lat="46.1225" lon="4.01696">
        <ele>335</ele>
        <time>2016-04-19T12:58:28Z</time>
      </trkpt>
      <trkpt lat="46.1225" lon="4.01689">
        <ele>336</ele>
        <time>2016-04-19T12:58:34Z</time>
      </trkpt>
      <trkpt lat="46.12256" lon="4.01661">
        <ele>336</ele>
        <time>2016-04-19T12:58:54Z</time>
      </trkpt>
      <trkpt lat="46.12258" lon="4.01634">
        <ele>334</ele>
        <time>2016-04-19T12:59:13Z</time>
      </trkpt>
      <trkpt lat="46.12258" lon="4.01629">
        <ele>334</ele>
        <time>2016-04-19T12:59:22Z</time>
      </trkpt>
      <trkpt lat="46.12256" lon="4.01623">
        <ele>334</ele>
        <time>2016-04-19T12:59:25Z</time>
      </trkpt>
      <trkpt lat="46.12247" lon="4.01577">
        <ele>331</ele>
        <time>2016-04-19T12:59:58Z</time>
      </trkpt>
      <trkpt lat="46.12243" lon="4.01564">
        <ele>330</ele>
        <time>2016-04-19T13:00:09Z</time>
      </trkpt>
      <trkpt lat="46.12233" lon="4.01522">
        <ele>325</ele>
        <time>2016-04-19T13:00:42Z</time>
      </trkpt>
      <trkpt lat="46.12226" lon="4.01474">
        <ele>320</ele>
        <time>2016-04-19T13:01:15Z</time>
      </trkpt>
      <trkpt lat="46.12221" lon="4.01432">
        <ele>317</ele>
        <time>2016-04-19T13:01:46Z</time>
      </trkpt>
      <trkpt lat="46.12218" lon="4.01427">
        <ele>317</ele>
        <time>2016-04-19T13:01:50Z</time>
      </trkpt>
      <trkpt lat="46.12214" lon="4.01406">
        <ele>316</ele>
        <time>2016-04-19T13:02:02Z</time>
      </trkpt>
      <trkpt lat="46.12211" lon="4.01392">
        <ele>315</ele>
        <time>2016-04-19T13:02:13Z</time>
      </trkpt>
      <trkpt lat="46.12208" lon="4.01385">
        <ele>315</ele>
        <time>2016-04-19T13:02:18Z</time>
      </trkpt>
      <trkpt lat="46.12198" lon="4.01339">
        <ele>315</ele>
        <time>2016-04-19T13:02:51Z</time>
      </trkpt>
      <trkpt lat="46.12188" lon="4.01293">
        <ele>314</ele>
        <time>2016-04-19T13:03:26Z</time>
      </trkpt>
      <trkpt lat="46.12179" lon="4.01244">
        <ele>312</ele>
        <time>2016-04-19T13:04:02Z</time>
      </trkpt>
      <trkpt lat="46.1217" lon="4.01195">
        <ele>309</ele>
        <time>2016-04-19T13:04:32Z</time>
      </trkpt>
      <trkpt lat="46.12168" lon="4.01188">
        <ele>309</ele>
        <time>2016-04-19T13:04:36Z</time>
      </trkpt>
      <trkpt lat="46.12161" lon="4.01146">
        <ele>307</ele>
        <time>2016-04-19T13:05:08Z</time>
      </trkpt>
      <trkpt lat="46.12159" lon="4.01139">
        <ele>307</ele>
        <time>2016-04-19T13:05:15Z</time>
      </trkpt>
      <trkpt lat="46.12153" lon="4.01097">
        <ele>303</ele>
        <time>2016-04-19T13:05:50Z</time>
      </trkpt>
      <trkpt lat="46.12152" lon="4.01054">
        <ele>299</ele>
        <time>2016-04-19T13:06:20Z</time>
      </trkpt>
      <trkpt lat="46.12148" lon="4.01025">
        <ele>299</ele>
        <time>2016-04-19T13:06:37Z</time>
      </trkpt>
      <trkpt lat="46.12143" lon="4.01013">
        <ele>299</ele>
        <time>2016-04-19T13:06:44Z</time>
      </trkpt>
      <trkpt lat="46.12139" lon="4.00999">
        <ele>299</ele>
        <time>2016-04-19T13:06:52Z</time>
      </trkpt>
      <trkpt lat="46.12133" lon="4.00958">
        <ele>296</ele>
        <time>2016-04-19T13:07:23Z</time>
      </trkpt>
      <trkpt lat="46.12126" lon="4.00901">
        <ele>290</ele>
        <time>2016-04-19T13:07:56Z</time>
      </trkpt>
      <trkpt lat="46.12121" lon="4.00851">
        <ele>288</ele>
        <time>2016-04-19T13:08:28Z</time>
      </trkpt>
      <trkpt lat="46.1211" lon="4.00803">
        <ele>286</ele>
        <time>2016-04-19T13:08:58Z</time>
      </trkpt>
      <trkpt lat="46.12099" lon="4.00761">
        <ele>287</ele>
        <time>2016-04-19T13:09:29Z</time>
      </trkpt>
      <trkpt lat="46.12092" lon="4.00713">
        <ele>288</ele>
        <time>2016-04-19T13:10:01Z</time>
      </trkpt>
      <trkpt lat="46.1209" lon="4.00663">
        <ele>290</ele>
        <time>2016-04-19T13:10:35Z</time>
      </trkpt>
      <trkpt lat="46.1209" lon="4.00656">
        <ele>290</ele>
        <time>2016-04-19T13:10:42Z</time>
      </trkpt>
      <trkpt lat="46.12087" lon="4.00613">
        <ele>292</ele>
        <time>2016-04-19T13:11:13Z</time>
      </trkpt>
      <trkpt lat="46.12083" lon="4.00561">
        <ele>293</ele>
        <time>2016-04-19T13:11:47Z</time>
      </trkpt>
      <trkpt lat="46.1208" lon="4.00539">
        <ele>294</ele>
        <time>2016-04-19T13:12:00Z</time>
      </trkpt>
      <trkpt lat="46.12079" lon="4.00536">
        <ele>295</ele>
        <time>2016-04-19T13:12:11Z</time>
      </trkpt>
      <trkpt lat="46.12074" lon="4.00535">
        <ele>295</ele>
        <time>2016-04-19T13:12:19Z</time>
      </trkpt>
      <trkpt lat="46.12039" lon="4.00535">
        <ele>297</ele>
        <time>2016-04-19T13:12:51Z</time>
      </trkpt>
      <trkpt lat="46.12003" lon="4.0054">
        <ele>298</ele>
        <time>2016-04-19T13:13:21Z</time>
      </trkpt>
      <trkpt lat="46.11964" lon="4.00544">
        <ele>299</ele>
        <time>2016-04-19T13:13:55Z</time>
      </trkpt>
      <trkpt lat="46.11927" lon="4.00547">
        <ele>300</ele>
        <time>2016-04-19T13:14:27Z</time>
      </trkpt>
      <trkpt lat="46.11892" lon="4.00551">
        <ele>300</ele>
        <time>2016-04-19T13:14:58Z</time>
      </trkpt>
      <trkpt lat="46.11853" lon="4.00556">
        <ele>300</ele>
        <time>2016-04-19T13:15:32Z</time>
      </trkpt>
      <trkpt lat="46.11817" lon="4.00554">
        <ele>299</ele>
        <time>2016-04-19T13:16:02Z</time>
      </trkpt>
      <trkpt lat="46.11782" lon="4.00556">
        <ele>299</ele>
        <time>2016-04-19T13:16:32Z</time>
      </trkpt>
      <trkpt lat="46.11745" lon="4.00555">
        <ele>299</ele>
        <time>2016-04-19T13:17:03Z</time>
      </trkpt>
      <trkpt lat="46.11709" lon="4.00557">
        <ele>300</ele>
        <time>2016-04-19T13:17:36Z</time>
      </trkpt>
      <trkpt lat="46.11669" lon="4.00557">
        <ele>300</ele>
        <time>2016-04-19T13:18:10Z</time>
      </trkpt>
      <trkpt lat="46.11634" lon="4.00557">
        <ele>301</ele>
        <time>2016-04-19T13:18:41Z</time>
      </trkpt>
      <trkpt lat="46.11604" lon="4.00557">
        <ele>301</ele>
        <time>2016-04-19T13:19:12Z</time>
      </trkpt>
      <trkpt lat="46.11568" lon="4.0056">
        <ele>301</ele>
        <time>2016-04-19T13:19:43Z</time>
      </trkpt>
      <trkpt lat="46.11529" lon="4.00564">
        <ele>302</ele>
        <time>2016-04-19T13:20:17Z</time>
      </trkpt>
      <trkpt lat="46.11492" lon="4.00571">
        <ele>302</ele>
        <time>2016-04-19T13:20:50Z</time>
      </trkpt>
      <trkpt lat="46.11462" lon="4.00567">
        <ele>302</ele>
        <time>2016-04-19T13:21:18Z</time>
      </trkpt>
      <trkpt lat="46.11426" lon="4.00568">
        <ele>302</ele>
        <time>2016-04-19T13:21:51Z</time>
      </trkpt>
      <trkpt lat="46.11387" lon="4.00567">
        <ele>301</ele>
        <time>2016-04-19T13:22:25Z</time>
      </trkpt>
      <trkpt lat="46.11353" lon="4.00562">
        <ele>300</ele>
        <time>2016-04-19T13:22:56Z</time>
      </trkpt>
      <trkpt lat="46.11314" lon="4.00553">
        <ele>299</ele>
        <time>2016-04-19T13:23:30Z</time>
      </trkpt>
      <trkpt lat="46.11279" lon="4.00548">
        <ele>300</ele>
        <time>2016-04-19T13:24:03Z</time>
      </trkpt>
      <trkpt lat="46.11243" lon="4.00533">
        <ele>300</ele>
        <time>2016-04-19T13:24:36Z</time>
      </trkpt>
      <trkpt lat="46.1123" lon="4.00522">
        <ele>301</ele>
        <time>2016-04-19T13:24:50Z</time>
      </trkpt>
      <trkpt lat="46.11225" lon="4.0052">
        <ele>301</ele>
        <time>2016-04-19T13:24:54Z</time>
      </trkpt>
      <trkpt lat="46.11191" lon="4.00489">
        <ele>302</ele>
        <time>2016-04-19T13:25:28Z</time>
      </trkpt>
      <trkpt lat="46.1117" lon="4.00461">
        <ele>302</ele>
        <time>2016-04-19T13:26:21Z</time>
      </trkpt>
      <trkpt lat="46.11155" lon="4.00452">
        <ele>301</ele>
        <time>2016-04-19T13:26:37Z</time>
      </trkpt>
      <trkpt lat="46.11145" lon="4.0045">
        <ele>301</ele>
        <time>2016-04-19T13:26:47Z</time>
      </trkpt>
      <trkpt lat="46.11133" lon="4.00462">
        <ele>301</ele>
        <time>2016-04-19T13:27:00Z</time>
      </trkpt>
      <trkpt lat="46.11109" lon="4.00497">
        <ele>301</ele>
        <time>2016-04-19T13:27:32Z</time>
      </trkpt>
      <trkpt lat="46.11088" lon="4.00517">
        <ele>302</ele>
        <time>2016-04-19T13:27:53Z</time>
      </trkpt>
      <trkpt lat="46.11066" lon="4.00511">
        <ele>302</ele>
        <time>2016-04-19T13:28:17Z</time>
      </trkpt>
      <trkpt lat="46.11031" lon="4.00486">
        <ele>302</ele>
        <time>2016-04-19T13:28:49Z</time>
      </trkpt>
      <trkpt lat="46.11003" lon="4.00465">
        <ele>302</ele>
        <time>2016-04-19T13:29:23Z</time>
      </trkpt>
      <trkpt lat="46.10971" lon="4.0044">
        <ele>302</ele>
        <time>2016-04-19T13:29:55Z</time>
      </trkpt>
      <trkpt lat="46.10936" lon="4.00414">
        <ele>303</ele>
        <time>2016-04-19T13:30:28Z</time>
      </trkpt>
      <trkpt lat="46.10904" lon="4.00393">
        <ele>303</ele>
        <time>2016-04-19T13:31:02Z</time>
      </trkpt>
      <trkpt lat="46.10872" lon="4.00371">
        <ele>304</ele>
        <time>2016-04-19T13:31:35Z</time>
      </trkpt>
      <trkpt lat="46.10836" lon="4.00347">
        <ele>305</ele>
        <time>2016-04-19T13:32:09Z</time>
      </trkpt>
      <trkpt lat="46.10796" lon="4.00337">
        <ele>306</ele>
        <time>2016-04-19T13:32:42Z</time>
      </trkpt>
      <trkpt lat="46.10755" lon="4.00333">
        <ele>307</ele>
        <time>2016-04-19T13:33:18Z</time>
      </trkpt>
      <trkpt lat="46.10721" lon="4.0033">
        <ele>307</ele>
        <time>2016-04-19T13:33:50Z</time>
      </trkpt>
      <trkpt lat="46.10702" lon="4.00325">
        <ele>309</ele>
        <time>2016-04-19T13:34:13Z</time>
      </trkpt>
      <trkpt lat="46.10701" lon="4.00318">
        <ele>310</ele>
        <time>2016-04-19T13:34:26Z</time>
      </trkpt>
      <trkpt lat="46.10693" lon="4.00266">
        <ele>310</ele>
        <time>2016-04-19T13:34:58Z</time>
      </trkpt>
      <trkpt lat="46.10703" lon="4.0021">
        <ele>310</ele>
        <time>2016-04-19T13:35:32Z</time>
      </trkpt>
      <trkpt lat="46.10715" lon="4.00156">
        <ele>310</ele>
        <time>2016-04-19T13:36:05Z</time>
      </trkpt>
      <trkpt lat="46.10727" lon="4.00109">
        <ele>311</ele>
        <time>2016-04-19T13:36:36Z</time>
      </trkpt>
      <trkpt lat="46.1074" lon="4.00061">
        <ele>310</ele>
        <time>2016-04-19T13:37:07Z</time>
      </trkpt>
      <trkpt lat="46.10752" lon="4.00014">
        <ele>311</ele>
        <time>2016-04-19T13:37:39Z</time>
      </trkpt>
      <trkpt lat="46.10766" lon="3.99962">
        <ele>312</ele>
        <time>2016-04-19T13:38:12Z</time>
      </trkpt>
      <trkpt lat="46.10767" lon="3.99954">
        <ele>312</ele>
        <time>2016-04-19T13:38:17Z</time>
      </trkpt>
      <trkpt lat="46.10785" lon="3.99909">
        <ele>312</ele>
        <time>2016-04-19T13:38:50Z</time>
      </trkpt>
      <trkpt lat="46.10799" lon="3.99872">
        <ele>313</ele>
        <time>2016-04-19T13:39:24Z</time>
      </trkpt>
      <trkpt lat="46.10808" lon="3.99844">
        <ele>314</ele>
        <time>2016-04-19T13:43:14Z</time>
      </trkpt>
      <trkpt lat="46.10807" lon="3.99843">
        <ele>313</ele>
        <time>2016-04-19T13:44:53Z</time>
      </trkpt>
      <trkpt lat="46.10811" lon="3.99845">
        <ele>313</ele>
        <time>2016-04-19T13:53:47Z</time>
      </trkpt>
      <trkpt lat="46.10813" lon="3.99821">
        <ele>313</ele>
        <time>2016-04-19T13:54:26Z</time>
      </trkpt>
      <trkpt lat="46.10812" lon="3.99768">
        <ele>314</ele>
        <time>2016-04-19T13:55:00Z</time>
      </trkpt>
      <trkpt lat="46.10812" lon="3.99722">
        <ele>315</ele>
        <time>2016-04-19T13:55:35Z</time>
      </trkpt>
      <trkpt lat="46.10812" lon="3.99672">
        <ele>315</ele>
        <time>2016-04-19T13:56:06Z</time>
      </trkpt>
      <trkpt lat="46.10807" lon="3.9966">
        <ele>316</ele>
        <time>2016-04-19T13:56:14Z</time>
      </trkpt>
      <trkpt lat="46.10776" lon="3.99636">
        <ele>316</ele>
        <time>2016-04-19T13:56:46Z</time>
      </trkpt>
      <trkpt lat="46.10744" lon="3.99613">
        <ele>317</ele>
        <time>2016-04-19T13:57:16Z</time>
      </trkpt>
      <trkpt lat="46.10726" lon="3.996">
        <ele>318</ele>
        <time>2016-04-19T13:57:31Z</time>
      </trkpt>
      <trkpt lat="46.10724" lon="3.99594">
        <ele>318</ele>
        <time>2016-04-19T13:57:35Z</time>
      </trkpt>
      <trkpt lat="46.10729" lon="3.99573">
        <ele>318</ele>
        <time>2016-04-19T13:57:48Z</time>
      </trkpt>
      <trkpt lat="46.10737" lon="3.99525">
        <ele>319</ele>
        <time>2016-04-19T13:58:20Z</time>
      </trkpt>
      <trkpt lat="46.10742" lon="3.99481">
        <ele>319</ele>
        <time>2016-04-19T13:58:45Z</time>
      </trkpt>
      <trkpt lat="46.10747" lon="3.99433">
        <ele>322</ele>
        <time>2016-04-19T13:59:15Z</time>
      </trkpt>
      <trkpt lat="46.10747" lon="3.99377">
        <ele>323</ele>
        <time>2016-04-19T13:59:48Z</time>
      </trkpt>
      <trkpt lat="46.10741" lon="3.99324">
        <ele>324</ele>
        <time>2016-04-19T14:00:20Z</time>
      </trkpt>
      <trkpt lat="46.10735" lon="3.99267">
        <ele>326</ele>
        <time>2016-04-19T14:00:53Z</time>
      </trkpt>
      <trkpt lat="46.10732" lon="3.99216">
        <ele>327</ele>
        <time>2016-04-19T14:01:24Z</time>
      </trkpt>
      <trkpt lat="46.10734" lon="3.99166">
        <ele>327</ele>
        <time>2016-04-19T14:01:55Z</time>
      </trkpt>
      <trkpt lat="46.10735" lon="3.99115">
        <ele>328</ele>
        <time>2016-04-19T14:02:28Z</time>
      </trkpt>
      <trkpt lat="46.10739" lon="3.9906">
        <ele>329</ele>
        <time>2016-04-19T14:03:00Z</time>
      </trkpt>
      <trkpt lat="46.1074" lon="3.99003">
        <ele>329</ele>
        <time>2016-04-19T14:03:34Z</time>
      </trkpt>
      <trkpt lat="46.10733" lon="3.98951">
        <ele>330</ele>
        <time>2016-04-19T14:04:04Z</time>
      </trkpt>
      <trkpt lat="46.10729" lon="3.98916">
        <ele>330</ele>
        <time>2016-04-19T14:04:35Z</time>
      </trkpt>
      <trkpt lat="46.10722" lon="3.98882">
        <ele>330</ele>
        <time>2016-04-19T14:04:59Z</time>
      </trkpt>
      <trkpt lat="46.10721" lon="3.98875">
        <ele>328</ele>
        <time>2016-04-19T14:05:31Z</time>
      </trkpt>
      <trkpt lat="46.1072" lon="3.98868">
        <ele>328</ele>
        <time>2016-04-19T14:05:38Z</time>
      </trkpt>
      <trkpt lat="46.10712" lon="3.98827">
        <ele>328</ele>
        <time>2016-04-19T14:06:09Z</time>
      </trkpt>
      <trkpt lat="46.10705" lon="3.98777">
        <ele>329</ele>
        <time>2016-04-19T14:06:39Z</time>
      </trkpt>
      <trkpt lat="46.10696" lon="3.9872">
        <ele>330</ele>
        <time>2016-04-19T14:07:15Z</time>
      </trkpt>
      <trkpt lat="46.10693" lon="3.98715">
        <ele>330</ele>
        <time>2016-04-19T14:07:19Z</time>
      </trkpt>
      <trkpt lat="46.10685" lon="3.98666">
        <ele>331</ele>
        <time>2016-04-19T14:07:51Z</time>
      </trkpt>
      <trkpt lat="46.1065" lon="3.98634">
        <ele>330</ele>
        <time>2016-04-19T14:08:25Z</time>
      </trkpt>
      <trkpt lat="46.10622" lon="3.98606">
        <ele>329</ele>
        <time>2016-04-19T14:08:59Z</time>
      </trkpt>
      <trkpt lat="46.10597" lon="3.9858">
        <ele>329</ele>
        <time>2016-04-19T14:09:25Z</time>
      </trkpt>
      <trkpt lat="46.10577" lon="3.98542">
        <ele>330</ele>
        <time>2016-04-19T14:09:55Z</time>
      </trkpt>
      <trkpt lat="46.10558" lon="3.98492">
        <ele>331</ele>
        <time>2016-04-19T14:10:30Z</time>
      </trkpt>
      <trkpt lat="46.10538" lon="3.9844">
        <ele>331</ele>
        <time>2016-04-19T14:11:05Z</time>
      </trkpt>
      <trkpt lat="46.10514" lon="3.98394">
        <ele>331</ele>
        <time>2016-04-19T14:11:39Z</time>
      </trkpt>
      <trkpt lat="46.10489" lon="3.98346">
        <ele>331</ele>
        <time>2016-04-19T14:12:14Z</time>
      </trkpt>
      <trkpt lat="46.10469" lon="3.98305">
        <ele>332</ele>
        <time>2016-04-19T14:12:45Z</time>
      </trkpt>
      <trkpt lat="46.10444" lon="3.98258">
        <ele>332</ele>
        <time>2016-04-19T14:13:19Z</time>
      </trkpt>
      <trkpt lat="46.10421" lon="3.98213">
        <ele>332</ele>
        <time>2016-04-19T14:13:52Z</time>
      </trkpt>
      <trkpt lat="46.10396" lon="3.98168">
        <ele>332</ele>
        <time>2016-04-19T14:14:26Z</time>
      </trkpt>
      <trkpt lat="46.10374" lon="3.98129">
        <ele>332</ele>
        <time>2016-04-19T14:14:57Z</time>
      </trkpt>
      <trkpt lat="46.10357" lon="3.98088">
        <ele>333</ele>
        <time>2016-04-19T14:15:27Z</time>
      </trkpt>
      <trkpt lat="46.10338" lon="3.98047">
        <ele>332</ele>
        <time>2016-04-19T14:15:58Z</time>
      </trkpt>
      <trkpt lat="46.10319" lon="3.98006">
        <ele>331</ele>
        <time>2016-04-19T14:16:29Z</time>
      </trkpt>
      <trkpt lat="46.10299" lon="3.97964">
        <ele>331</ele>
        <time>2016-04-19T14:17:00Z</time>
      </trkpt>
      <trkpt lat="46.10279" lon="3.9792">
        <ele>332</ele>
        <time>2016-04-19T14:17:32Z</time>
      </trkpt>
      <trkpt lat="46.10259" lon="3.97876">
        <ele>332</ele>
        <time>2016-04-19T14:18:03Z</time>
      </trkpt>
      <trkpt lat="46.10247" lon="3.97837">
        <ele>332</ele>
        <time>2016-04-19T14:18:33Z</time>
      </trkpt>
      <trkpt lat="46.1023" lon="3.97793">
        <ele>332</ele>
        <time>2016-04-19T14:19:07Z</time>
      </trkpt>
      <trkpt lat="46.10214" lon="3.97741">
        <ele>333</ele>
        <time>2016-04-19T14:19:42Z</time>
      </trkpt>
      <trkpt lat="46.10206" lon="3.977">
        <ele>334</ele>
        <time>2016-04-19T14:20:13Z</time>
      </trkpt>
      <trkpt lat="46.10216" lon="3.97676">
        <ele>334</ele>
        <time>2016-04-19T14:20:32Z</time>
      </trkpt>
      <trkpt lat="46.10247" lon="3.97655">
        <ele>335</ele>
        <time>2016-04-19T14:21:04Z</time>
      </trkpt>
      <trkpt lat="46.10264" lon="3.97627">
        <ele>335</ele>
        <time>2016-04-19T14:21:28Z</time>
      </trkpt>
      <trkpt lat="46.10265" lon="3.97614">
        <ele>335</ele>
        <time>2016-04-19T14:21:36Z</time>
      </trkpt>
      <trkpt lat="46.10255" lon="3.9758">
        <ele>336</ele>
        <time>2016-04-19T14:21:57Z</time>
      </trkpt>
      <trkpt lat="46.10227" lon="3.97549">
        <ele>337</ele>
        <time>2016-04-19T14:22:30Z</time>
      </trkpt>
      <trkpt lat="46.10205" lon="3.9752">
        <ele>339</ele>
        <time>2016-04-19T14:23:04Z</time>
      </trkpt>
      <trkpt lat="46.10192" lon="3.97499">
        <ele>339</ele>
        <time>2016-04-19T14:23:21Z</time>
      </trkpt>
      <trkpt lat="46.10188" lon="3.97486">
        <ele>338</ele>
        <time>2016-04-19T14:23:31Z</time>
      </trkpt>
      <trkpt lat="46.10182" lon="3.97438">
        <ele>339</ele>
        <time>2016-04-19T14:24:02Z</time>
      </trkpt>
      <trkpt lat="46.10178" lon="3.97382">
        <ele>340</ele>
        <time>2016-04-19T14:24:35Z</time>
      </trkpt>
      <trkpt lat="46.10163" lon="3.9734">
        <ele>342</ele>
        <time>2016-04-19T14:25:05Z</time>
      </trkpt>
      <trkpt lat="46.10154" lon="3.97333">
        <ele>343</ele>
        <time>2016-04-19T14:25:15Z</time>
      </trkpt>
      <trkpt lat="46.10125" lon="3.97315">
        <ele>343</ele>
        <time>2016-04-19T14:25:46Z</time>
      </trkpt>
      <trkpt lat="46.10094" lon="3.97291">
        <ele>344</ele>
        <time>2016-04-19T14:26:20Z</time>
      </trkpt>
      <trkpt lat="46.10075" lon="3.97273">
        <ele>343</ele>
        <time>2016-04-19T14:26:42Z</time>
      </trkpt>
      <trkpt lat="46.10052" lon="3.97234">
        <ele>344</ele>
        <time>2016-04-19T14:27:15Z</time>
      </trkpt>
      <trkpt lat="46.10039" lon="3.97184">
        <ele>345</ele>
        <time>2016-04-19T14:27:50Z</time>
      </trkpt>
      <trkpt lat="46.10029" lon="3.97135">
        <ele>344</ele>
        <time>2016-04-19T14:28:22Z</time>
      </trkpt>
      <trkpt lat="46.10017" lon="3.97088">
        <ele>343</ele>
        <time>2016-04-19T14:28:55Z</time>
      </trkpt>
      <trkpt lat="46.10015" lon="3.97081">
        <ele>343</ele>
        <time>2016-04-19T14:29:00Z</time>
      </trkpt>
      <trkpt lat="46.10003" lon="3.97034">
        <ele>342</ele>
        <time>2016-04-19T14:29:30Z</time>
      </trkpt>
      <trkpt lat="46.09988" lon="3.96987">
        <ele>341</ele>
        <time>2016-04-19T14:30:02Z</time>
      </trkpt>
      <trkpt lat="46.09974" lon="3.96941">
        <ele>341</ele>
        <time>2016-04-19T14:30:33Z</time>
      </trkpt>
      <trkpt lat="46.09972" lon="3.96933">
        <ele>341</ele>
        <time>2016-04-19T14:30:38Z</time>
      </trkpt>
      <trkpt lat="46.09971" lon="3.96927">
        <ele>341</ele>
        <time>2016-04-19T14:30:45Z</time>
      </trkpt>
      <trkpt lat="46.09963" lon="3.96908">
        <ele>342</ele>
        <time>2016-04-19T14:31:00Z</time>
      </trkpt>
      <trkpt lat="46.09954" lon="3.96874">
        <ele>343</ele>
        <time>2016-04-19T14:31:23Z</time>
      </trkpt>
      <trkpt lat="46.09939" lon="3.96828">
        <ele>342</ele>
        <time>2016-04-19T14:31:54Z</time>
      </trkpt>
      <trkpt lat="46.09923" lon="3.96783">
        <ele>342</ele>
        <time>2016-04-19T14:32:27Z</time>
      </trkpt>
      <trkpt lat="46.0991" lon="3.96736">
        <ele>343</ele>
        <time>2016-04-19T14:32:59Z</time>
      </trkpt>
      <trkpt lat="46.09897" lon="3.9669">
        <ele>345</ele>
        <time>2016-04-19T14:33:31Z</time>
      </trkpt>
      <trkpt lat="46.09885" lon="3.96639">
        <ele>345</ele>
        <time>2016-04-19T14:34:05Z</time>
      </trkpt>
      <trkpt lat="46.0988" lon="3.96587">
        <ele>346</ele>
        <time>2016-04-19T14:34:39Z</time>
      </trkpt>
      <trkpt lat="46.09879" lon="3.96579">
        <ele>346</ele>
        <time>2016-04-19T14:34:44Z</time>
      </trkpt>
      <trkpt lat="46.09875" lon="3.96531">
        <ele>343</ele>
        <time>2016-04-19T14:35:16Z</time>
      </trkpt>
      <trkpt lat="46.09876" lon="3.96517">
        <ele>342</ele>
        <time>2016-04-19T14:35:25Z</time>
      </trkpt>
      <trkpt lat="46.09877" lon="3.9651">
        <ele>341</ele>
        <time>2016-04-19T14:35:30Z</time>
      </trkpt>
      <trkpt lat="46.09878" lon="3.96503">
        <ele>342</ele>
        <time>2016-04-19T14:35:34Z</time>
      </trkpt>
      <trkpt lat="46.09889" lon="3.96456">
        <ele>342</ele>
        <time>2016-04-19T14:36:06Z</time>
      </trkpt>
      <trkpt lat="46.09903" lon="3.9641">
        <ele>343</ele>
        <time>2016-04-19T14:36:39Z</time>
      </trkpt>
      <trkpt lat="46.09904" lon="3.96404">
        <ele>343</ele>
        <time>2016-04-19T14:36:43Z</time>
      </trkpt>
      <trkpt lat="46.0991" lon="3.96384">
        <ele>343</ele>
        <time>2016-04-19T14:36:56Z</time>
      </trkpt>
      <trkpt lat="46.09926" lon="3.9634">
        <ele>343</ele>
        <time>2016-04-19T14:37:29Z</time>
      </trkpt>
      <trkpt lat="46.09929" lon="3.96334">
        <ele>342</ele>
        <time>2016-04-19T14:37:33Z</time>
      </trkpt>
      <trkpt lat="46.09953" lon="3.96298">
        <ele>342</ele>
        <time>2016-04-19T14:38:07Z</time>
      </trkpt>
      <trkpt lat="46.09976" lon="3.96257">
        <ele>342</ele>
        <time>2016-04-19T14:38:38Z</time>
      </trkpt>
      <trkpt lat="46.09999" lon="3.96219">
        <ele>341</ele>
        <time>2016-04-19T14:39:10Z</time>
      </trkpt>
      <trkpt lat="46.10001" lon="3.96212">
        <ele>341</ele>
        <time>2016-04-19T14:39:15Z</time>
      </trkpt>
      <trkpt lat="46.10001" lon="3.96205">
        <ele>341</ele>
        <time>2016-04-19T14:39:20Z</time>
      </trkpt>
      <trkpt lat="46.09999" lon="3.96201">
        <ele>341</ele>
        <time>2016-04-19T14:39:28Z</time>
      </trkpt>
      <trkpt lat="46.1" lon="3.96195">
        <ele>341</ele>
        <time>2016-04-19T14:39:38Z</time>
      </trkpt>
      <trkpt lat="46.1" lon="3.96188">
        <ele>341</ele>
        <time>2016-04-19T14:39:42Z</time>
      </trkpt>
      <trkpt lat="46.09999" lon="3.96183">
        <ele>342</ele>
        <time>2016-04-19T14:43:01Z</time>
      </trkpt>
      <trkpt lat="46.10005" lon="3.96141">
        <ele>341</ele>
        <time>2016-04-19T14:43:32Z</time>
      </trkpt>
      <trkpt lat="46.10009" lon="3.9609">
        <ele>340</ele>
        <time>2016-04-19T14:44:06Z</time>
      </trkpt>
      <trkpt lat="46.10004" lon="3.96032">
        <ele>341</ele>
        <time>2016-04-19T14:44:39Z</time>
      </trkpt>
      <trkpt lat="46.09989" lon="3.95985">
        <ele>341</ele>
        <time>2016-04-19T14:45:11Z</time>
      </trkpt>
      <trkpt lat="46.09977" lon="3.95936">
        <ele>342</ele>
        <time>2016-04-19T14:45:44Z</time>
      </trkpt>
      <trkpt lat="46.09973" lon="3.95915">
        <ele>343</ele>
        <time>2016-04-19T14:45:58Z</time>
      </trkpt>
      <trkpt lat="46.09972" lon="3.95908">
        <ele>342</ele>
        <time>2016-04-19T14:46:03Z</time>
      </trkpt>
      <trkpt lat="46.09949" lon="3.95869">
        <ele>342</ele>
        <time>2016-04-19T14:46:34Z</time>
      </trkpt>
      <trkpt lat="46.09927" lon="3.95828">
        <ele>343</ele>
        <time>2016-04-19T14:47:08Z</time>
      </trkpt>
      <trkpt lat="46.09904" lon="3.95789">
        <ele>343</ele>
        <time>2016-04-19T14:47:42Z</time>
      </trkpt>
      <trkpt lat="46.09901" lon="3.95782">
        <ele>343</ele>
        <time>2016-04-19T14:47:47Z</time>
      </trkpt>
      <trkpt lat="46.09878" lon="3.95744">
        <ele>344</ele>
        <time>2016-04-19T14:48:20Z</time>
      </trkpt>
      <trkpt lat="46.09851" lon="3.95708">
        <ele>344</ele>
        <time>2016-04-19T14:48:54Z</time>
      </trkpt>
      <trkpt lat="46.09824" lon="3.95673">
        <ele>345</ele>
        <time>2016-04-19T14:49:27Z</time>
      </trkpt>
      <trkpt lat="46.09797" lon="3.95638">
        <ele>346</ele>
        <time>2016-04-19T14:50:01Z</time>
      </trkpt>
      <trkpt lat="46.09772" lon="3.95604">
        <ele>346</ele>
        <time>2016-04-19T14:50:34Z</time>
      </trkpt>
      <trkpt lat="46.09746" lon="3.95566">
        <ele>346</ele>
        <time>2016-04-19T14:51:07Z</time>
      </trkpt>
      <trkpt lat="46.09726" lon="3.95532">
        <ele>346</ele>
        <time>2016-04-19T14:51:37Z</time>
      </trkpt>
      <trkpt lat="46.09701" lon="3.95494">
        <ele>346</ele>
        <time>2016-04-19T14:52:09Z</time>
      </trkpt>
      <trkpt lat="46.09679" lon="3.95456">
        <ele>346</ele>
        <time>2016-04-19T14:52:40Z</time>
      </trkpt>
      <trkpt lat="46.09656" lon="3.95418">
        <ele>346</ele>
        <time>2016-04-19T14:53:11Z</time>
      </trkpt>
      <trkpt lat="46.09634" lon="3.95381">
        <ele>346</ele>
        <time>2016-04-19T14:53:41Z</time>
      </trkpt>
      <trkpt lat="46.09608" lon="3.95334">
        <ele>346</ele>
        <time>2016-04-19T14:54:20Z</time>
      </trkpt>
      <trkpt lat="46.09603" lon="3.95329">
        <ele>346</ele>
        <time>2016-04-19T14:54:33Z</time>
      </trkpt>
      <trkpt lat="46.096" lon="3.95325">
        <ele>347</ele>
        <time>2016-04-19T14:54:37Z</time>
      </trkpt>
      <trkpt lat="46.0959" lon="3.95307">
        <ele>347</ele>
        <time>2016-04-19T14:54:52Z</time>
      </trkpt>
      <trkpt lat="46.09586" lon="3.95302">
        <ele>346</ele>
        <time>2016-04-19T14:54:56Z</time>
      </trkpt>
      <trkpt lat="46.09583" lon="3.95296">
        <ele>346</ele>
        <time>2016-04-19T14:55:01Z</time>
      </trkpt>
      <trkpt lat="46.09579" lon="3.95282">
        <ele>347</ele>
        <time>2016-04-19T14:55:23Z</time>
      </trkpt>
      <trkpt lat="46.09577" lon="3.95276">
        <ele>347</ele>
        <time>2016-04-19T14:55:28Z</time>
      </trkpt>
      <trkpt lat="46.0957" lon="3.95264">
        <ele>347</ele>
        <time>2016-04-19T14:55:38Z</time>
      </trkpt>
      <trkpt lat="46.09565" lon="3.95252">
        <ele>346</ele>
        <time>2016-04-19T14:55:49Z</time>
      </trkpt>
      <trkpt lat="46.09547" lon="3.95211">
        <ele>346</ele>
        <time>2016-04-19T14:56:22Z</time>
      </trkpt>
      <trkpt lat="46.09527" lon="3.9517">
        <ele>345</ele>
        <time>2016-04-19T14:56:52Z</time>
      </trkpt>
      <trkpt lat="46.09508" lon="3.95139">
        <ele>343</ele>
        <time>2016-04-19T14:57:16Z</time>
      </trkpt>
      <trkpt lat="46.09504" lon="3.95134">
        <ele>344</ele>
        <time>2016-04-19T14:57:20Z</time>
      </trkpt>
      <trkpt lat="46.0948" lon="3.95097">
        <ele>343</ele>
        <time>2016-04-19T14:57:52Z</time>
      </trkpt>
      <trkpt lat="46.09453" lon="3.95064">
        <ele>344</ele>
        <time>2016-04-19T14:58:25Z</time>
      </trkpt>
      <trkpt lat="46.09425" lon="3.95032">
        <ele>345</ele>
        <time>2016-04-19T14:58:59Z</time>
      </trkpt>
      <trkpt lat="46.09397" lon="3.95">
        <ele>346</ele>
        <time>2016-04-19T14:59:32Z</time>
      </trkpt>
      <trkpt lat="46.09367" lon="3.94976">
        <ele>347</ele>
        <time>2016-04-19T15:00:03Z</time>
      </trkpt>
      <trkpt lat="46.09334" lon="3.94944">
        <ele>348</ele>
        <time>2016-04-19T15:00:38Z</time>
      </trkpt>
      <trkpt lat="46.09329" lon="3.94942">
        <ele>348</ele>
        <time>2016-04-19T15:00:50Z</time>
      </trkpt>
      <trkpt lat="46.09305" lon="3.94915">
        <ele>347</ele>
        <time>2016-04-19T15:01:17Z</time>
      </trkpt>
      <trkpt lat="46.09296" lon="3.94908">
        <ele>348</ele>
        <time>2016-04-19T15:01:25Z</time>
      </trkpt>
      <trkpt lat="46.09261" lon="3.9488">
        <ele>347</ele>
        <time>2016-04-19T15:01:57Z</time>
      </trkpt>
      <trkpt lat="46.09253" lon="3.94873">
        <ele>347</ele>
        <time>2016-04-19T15:02:05Z</time>
      </trkpt>
      <trkpt lat="46.09225" lon="3.94843">
        <ele>344</ele>
        <time>2016-04-19T15:02:36Z</time>
      </trkpt>
      <trkpt lat="46.09202" lon="3.94815">
        <ele>343</ele>
        <time>2016-04-19T15:03:07Z</time>
      </trkpt>
      <trkpt lat="46.09174" lon="3.94784">
        <ele>343</ele>
        <time>2016-04-19T15:03:40Z</time>
      </trkpt>
      <trkpt lat="46.09143" lon="3.94755">
        <ele>345</ele>
        <time>2016-04-19T15:04:15Z</time>
      </trkpt>
      <trkpt lat="46.09103" lon="3.94757">
        <ele>346</ele>
        <time>2016-04-19T15:04:49Z</time>
      </trkpt>
      <trkpt lat="46.09088" lon="3.94762">
        <ele>346</ele>
        <time>2016-04-19T15:05:03Z</time>
      </trkpt>
      <trkpt lat="46.09083" lon="3.9476">
        <ele>346</ele>
        <time>2016-04-19T15:05:09Z</time>
      </trkpt>
      <trkpt lat="46.09079" lon="3.94757">
        <ele>346</ele>
        <time>2016-04-19T15:05:14Z</time>
      </trkpt>
      <trkpt lat="46.09074" lon="3.94754">
        <ele>345</ele>
        <time>2016-04-19T15:05:20Z</time>
      </trkpt>
      <trkpt lat="46.09069" lon="3.9475">
        <ele>345</ele>
        <time>2016-04-19T15:05:24Z</time>
      </trkpt>
      <trkpt lat="46.09066" lon="3.94745">
        <ele>344</ele>
        <time>2016-04-19T15:05:29Z</time>
      </trkpt>
      <trkpt lat="46.09064" lon="3.94739">
        <ele>343</ele>
        <time>2016-04-19T15:05:35Z</time>
      </trkpt>
      <trkpt lat="46.09063" lon="3.94731">
        <ele>344</ele>
        <time>2016-04-19T15:05:40Z</time>
      </trkpt>
      <trkpt lat="46.09062" lon="3.94725">
        <ele>345</ele>
        <time>2016-04-19T15:05:45Z</time>
      </trkpt>
      <trkpt lat="46.09046" lon="3.94678">
        <ele>342</ele>
        <time>2016-04-19T15:06:18Z</time>
      </trkpt>
      <trkpt lat="46.09023" lon="3.94639">
        <ele>341</ele>
        <time>2016-04-19T15:06:51Z</time>
      </trkpt>
      <trkpt lat="46.09" lon="3.94599">
        <ele>340</ele>
        <time>2016-04-19T15:07:24Z</time>
      </trkpt>
      <trkpt lat="46.08993" lon="3.94588">
        <ele>339</ele>
        <time>2016-04-19T15:07:48Z</time>
      </trkpt>
      <trkpt lat="46.0899" lon="3.94585">
        <ele>339</ele>
        <time>2016-04-19T15:08:17Z</time>
      </trkpt>
      <trkpt lat="46.0899" lon="3.94575">
        <ele>338</ele>
        <time>2016-04-19T15:08:55Z</time>
      </trkpt>
      <trkpt lat="46.08995" lon="3.94547">
        <ele>338</ele>
        <time>2016-04-19T15:09:18Z</time>
      </trkpt>
      <trkpt lat="46.08995" lon="3.9454">
        <ele>338</ele>
        <time>2016-04-19T15:09:22Z</time>
      </trkpt>
      <trkpt lat="46.08995" lon="3.94532">
        <ele>338</ele>
        <time>2016-04-19T15:09:26Z</time>
      </trkpt>
      <trkpt lat="46.08999" lon="3.94511">
        <ele>339</ele>
        <time>2016-04-19T15:09:41Z</time>
      </trkpt>
      <trkpt lat="46.09001" lon="3.94497">
        <ele>338</ele>
        <time>2016-04-19T15:09:52Z</time>
      </trkpt>
      <trkpt lat="46.09003" lon="3.9449">
        <ele>338</ele>
        <time>2016-04-19T15:09:57Z</time>
      </trkpt>
      <trkpt lat="46.09009" lon="3.9447">
        <ele>337</ele>
        <time>2016-04-19T15:10:12Z</time>
      </trkpt>
      <trkpt lat="46.09011" lon="3.94463">
        <ele>338</ele>
        <time>2016-04-19T15:10:18Z</time>
      </trkpt>
      <trkpt lat="46.09015" lon="3.94455">
        <ele>338</ele>
        <time>2016-04-19T15:10:32Z</time>
      </trkpt>
      <trkpt lat="46.09034" lon="3.94413">
        <ele>337</ele>
        <time>2016-04-19T15:11:04Z</time>
      </trkpt>
      <trkpt lat="46.09034" lon="3.94377">
        <ele>336</ele>
        <time>2016-04-19T15:11:35Z</time>
      </trkpt>
      <trkpt lat="46.0903" lon="3.94334">
        <ele>336</ele>
        <time>2016-04-19T15:12:06Z</time>
      </trkpt>
      <trkpt lat="46.09023" lon="3.94284">
        <ele>335</ele>
        <time>2016-04-19T15:12:40Z</time>
      </trkpt>
      <trkpt lat="46.09022" lon="3.94277">
        <ele>335</ele>
        <time>2016-04-19T15:12:44Z</time>
      </trkpt>
      <trkpt lat="46.09013" lon="3.94229">
        <ele>335</ele>
        <time>2016-04-19T15:13:18Z</time>
      </trkpt>
      <trkpt lat="46.0901" lon="3.94187">
        <ele>335</ele>
        <time>2016-04-19T15:14:39Z</time>
      </trkpt>
      <trkpt lat="46.0901" lon="3.9418">
        <ele>335</ele>
        <time>2016-04-19T15:14:45Z</time>
      </trkpt>
      <trkpt lat="46.09011" lon="3.94159">
        <ele>336</ele>
        <time>2016-04-19T15:15:15Z</time>
      </trkpt>
      <trkpt lat="46.09009" lon="3.94137">
        <ele>337</ele>
        <time>2016-04-19T15:15:31Z</time>
      </trkpt>
      <trkpt lat="46.09014" lon="3.94093">
        <ele>337</ele>
        <time>2016-04-19T15:16:02Z</time>
      </trkpt>
      <trkpt lat="46.09018" lon="3.94058">
        <ele>336</ele>
        <time>2016-04-19T15:16:51Z</time>
      </trkpt>
      <trkpt lat="46.0902" lon="3.94036">
        <ele>336</ele>
        <time>2016-04-19T15:17:06Z</time>
      </trkpt>
      <trkpt lat="46.09024" lon="3.93993">
        <ele>337</ele>
        <time>2016-04-19T15:17:36Z</time>
      </trkpt>
      <trkpt lat="46.09025" lon="3.93986">
        <ele>337</ele>
        <time>2016-04-19T15:17:41Z</time>
      </trkpt>
      <trkpt lat="46.09029" lon="3.93944">
        <ele>339</ele>
        <time>2016-04-19T15:18:11Z</time>
      </trkpt>
      <trkpt lat="46.09041" lon="3.93893">
        <ele>341</ele>
        <time>2016-04-19T15:18:46Z</time>
      </trkpt>
      <trkpt lat="46.09044" lon="3.9388">
        <ele>341</ele>
        <time>2016-04-19T15:18:55Z</time>
      </trkpt>
      <trkpt lat="46.09046" lon="3.93873">
        <ele>341</ele>
        <time>2016-04-19T15:18:59Z</time>
      </trkpt>
      <trkpt lat="46.09048" lon="3.93867">
        <ele>341</ele>
        <time>2016-04-19T15:19:03Z</time>
      </trkpt>
      <trkpt lat="46.09058" lon="3.93819">
        <ele>342</ele>
        <time>2016-04-19T15:19:37Z</time>
      </trkpt>
      <trkpt lat="46.09065" lon="3.93766">
        <ele>342</ele>
        <time>2016-04-19T15:20:12Z</time>
      </trkpt>
      <trkpt lat="46.09066" lon="3.93759">
        <ele>342</ele>
        <time>2016-04-19T15:20:17Z</time>
      </trkpt>
      <trkpt lat="46.09068" lon="3.93744">
        <ele>342</ele>
        <time>2016-04-19T15:20:27Z</time>
      </trkpt>
      <trkpt lat="46.09069" lon="3.93708">
        <ele>342</ele>
        <time>2016-04-19T15:20:50Z</time>
      </trkpt>
      <trkpt lat="46.09068" lon="3.93704">
        <ele>343</ele>
        <time>2016-04-19T15:21:06Z</time>
      </trkpt>
      <trkpt lat="46.09069" lon="3.93701">
        <ele>343</ele>
        <time>2016-04-19T15:21:17Z</time>
      </trkpt>
      <trkpt lat="46.0907" lon="3.93685">
        <ele>346</ele>
        <time>2016-04-19T15:21:36Z</time>
      </trkpt>
      <trkpt lat="46.09072" lon="3.93671">
        <ele>345</ele>
        <time>2016-04-19T15:21:46Z</time>
      </trkpt>
      <trkpt lat="46.09074" lon="3.93648">
        <ele>344</ele>
        <time>2016-04-19T15:22:02Z</time>
      </trkpt>
      <trkpt lat="46.09079" lon="3.93598">
        <ele>345</ele>
        <time>2016-04-19T15:22:34Z</time>
      </trkpt>
      <trkpt lat="46.09084" lon="3.93548">
        <ele>345</ele>
        <time>2016-04-19T15:23:04Z</time>
      </trkpt>
      <trkpt lat="46.09092" lon="3.93497">
        <ele>346</ele>
        <time>2016-04-19T15:23:36Z</time>
      </trkpt>
      <trkpt lat="46.09105" lon="3.9345">
        <ele>347</ele>
        <time>2016-04-19T15:24:09Z</time>
      </trkpt>
      <trkpt lat="46.09121" lon="3.93404">
        <ele>348</ele>
        <time>2016-04-19T15:24:43Z</time>
      </trkpt>
      <trkpt lat="46.09133" lon="3.93355">
        <ele>349</ele>
        <time>2016-04-19T15:25:15Z</time>
      </trkpt>
      <trkpt lat="46.0915" lon="3.93311">
        <ele>351</ele>
        <time>2016-04-19T15:25:48Z</time>
      </trkpt>
      <trkpt lat="46.09164" lon="3.93264">
        <ele>351</ele>
        <time>2016-04-19T15:26:21Z</time>
      </trkpt>
      <trkpt lat="46.09178" lon="3.93219">
        <ele>351</ele>
        <time>2016-04-19T15:26:52Z</time>
      </trkpt>
      <trkpt lat="46.09181" lon="3.93213">
        <ele>351</ele>
        <time>2016-04-19T15:26:56Z</time>
      </trkpt>
      <trkpt lat="46.09182" lon="3.93206">
        <ele>351</ele>
        <time>2016-04-19T15:27:01Z</time>
      </trkpt>
      <trkpt lat="46.09186" lon="3.93203">
        <ele>351</ele>
        <time>2016-04-19T15:27:06Z</time>
      </trkpt>
      <trkpt lat="46.09191" lon="3.93206">
        <ele>351</ele>
        <time>2016-04-19T15:27:11Z</time>
      </trkpt>
      <trkpt lat="46.09206" lon="3.93223">
        <ele>351</ele>
        <time>2016-04-19T15:27:29Z</time>
      </trkpt>
      <trkpt lat="46.09212" lon="3.93224">
        <ele>351</ele>
        <time>2016-04-19T15:27:34Z</time>
      </trkpt>
      <trkpt lat="46.09214" lon="3.9323">
        <ele>351</ele>
        <time>2016-04-19T15:27:39Z</time>
      </trkpt>
      <trkpt lat="46.09215" lon="3.93238">
        <ele>351</ele>
        <time>2016-04-19T15:27:44Z</time>
      </trkpt>
      <trkpt lat="46.09224" lon="3.93264">
        <ele>351</ele>
        <time>2016-04-19T15:28:01Z</time>
      </trkpt>
      <trkpt lat="46.09239" lon="3.93315">
        <ele>348</ele>
        <time>2016-04-19T15:28:36Z</time>
      </trkpt>
      <trkpt lat="46.09247" lon="3.93341">
        <ele>348</ele>
        <time>2016-04-19T15:28:55Z</time>
      </trkpt>
      <trkpt lat="46.0925" lon="3.93343">
        <ele>347</ele>
        <time>2016-04-19T15:29:06Z</time>
      </trkpt>
      <trkpt lat="46.09255" lon="3.93344">
        <ele>347</ele>
        <time>2016-04-19T15:29:11Z</time>
      </trkpt>
      <trkpt lat="46.0926" lon="3.93345">
        <ele>346</ele>
        <time>2016-04-19T15:29:16Z</time>
      </trkpt>
      <trkpt lat="46.09289" lon="3.93354">
        <ele>345</ele>
        <time>2016-04-19T15:29:43Z</time>
      </trkpt>
      <trkpt lat="46.09298" lon="3.93356">
        <ele>346</ele>
        <time>2016-04-19T15:29:53Z</time>
      </trkpt>
      <trkpt lat="46.09312" lon="3.93349">
        <ele>350</ele>
        <time>2016-04-19T15:30:06Z</time>
      </trkpt>
      <trkpt lat="46.09317" lon="3.93348">
        <ele>351</ele>
        <time>2016-04-19T15:30:11Z</time>
      </trkpt>
      <trkpt lat="46.09331" lon="3.93348">
        <ele>350</ele>
        <time>2016-04-19T15:30:24Z</time>
      </trkpt>
      <trkpt lat="46.09336" lon="3.93348">
        <ele>350</ele>
        <time>2016-04-19T15:30:29Z</time>
      </trkpt>
      <trkpt lat="46.09338" lon="3.93349">
        <ele>350</ele>
        <time>2016-04-19T15:30:59Z</time>
      </trkpt>
      <trkpt lat="46.09342" lon="3.9335">
        <ele>350</ele>
        <time>2016-04-19T15:31:33Z</time>
      </trkpt>
      <trkpt lat="46.09346" lon="3.93352">
        <ele>350</ele>
        <time>2016-04-19T15:31:43Z</time>
      </trkpt>
      <trkpt lat="46.09353" lon="3.9335">
        <ele>349</ele>
        <time>2016-04-19T15:32:17Z</time>
      </trkpt>
      <trkpt lat="46.09353" lon="3.93355">
        <ele>349</ele>
        <time>2016-04-19T15:33:07Z</time>
      </trkpt>
      <trkpt lat="46.09353" lon="3.93361">
        <ele>349</ele>
        <time>2016-04-19T15:33:12Z</time>
      </trkpt>
      <trkpt lat="46.09355" lon="3.93368">
        <ele>349</ele>
        <time>2016-04-19T15:33:18Z</time>
      </trkpt>
      <trkpt lat="46.09359" lon="3.93373">
        <ele>347</ele>
        <time>2016-04-19T15:33:25Z</time>
      </trkpt>
      <trkpt lat="46.0938" lon="3.93376">
        <ele>345</ele>
        <time>2016-04-19T15:33:45Z</time>
      </trkpt>
      <trkpt lat="46.09385" lon="3.93377">
        <ele>345</ele>
        <time>2016-04-19T15:33:51Z</time>
      </trkpt>
      <trkpt lat="46.09388" lon="3.9338">
        <ele>345</ele>
        <time>2016-04-19T15:33:58Z</time>
      </trkpt>
      <trkpt lat="46.0939" lon="3.93386">
        <ele>346</ele>
        <time>2016-04-19T15:35:02Z</time>
      </trkpt>
      <trkpt lat="46.09389" lon="3.93402">
        <ele>345</ele>
        <time>2016-04-19T15:35:34Z</time>
      </trkpt>
      <trkpt lat="46.09389" lon="3.93405">
        <ele>346</ele>
        <time>2016-04-19T15:36:06Z</time>
      </trkpt>
      <trkpt lat="46.09394" lon="3.93405">
        <ele>346</ele>
        <time>2016-04-19T15:36:17Z</time>
      </trkpt>
      <trkpt lat="46.09397" lon="3.93405">
        <ele>342</ele>
        <time>2016-04-19T15:36:54Z</time>
      </trkpt>
      <trkpt lat="46.09396" lon="3.93398">
        <ele>341</ele>
        <time>2016-04-19T15:37:11Z</time>
      </trkpt>
      <trkpt lat="46.09393" lon="3.93405">
        <ele>342</ele>
        <time>2016-04-19T15:37:59Z</time>
      </trkpt>
      <trkpt lat="46.09385" lon="3.93406">
        <ele>343</ele>
        <time>2016-04-19T15:38:47Z</time>
      </trkpt>
      <trkpt lat="46.09389" lon="3.93401">
        <ele>334</ele>
        <time>2016-04-19T15:39:41Z</time>
      </trkpt>
    </trkseg>
  </trk>
</gpx>